PAL112 RPLL-KLAX
Flight info
| Callsign | PAL112 |
|---|---|
| Flight time | N/A |
| Altitude | 31000 |
| Route | JOM2R JOM A590 MDE V75 CANAI DCT UKATA/N0499F330 DCT 34N150E 38N160E 42N170E/N0492F350 45N180E 47N170W 47N160W 46N150W 43N140W/N0477F370 40N130W DCT ALCOA DCT HUNTS DCT BURGL IRNMN2 |
| Aircraft | B77W/H-SDE1E2E3FGHIJ2J3J4J5M1RWXY/LB1D1 |
Departure
| Time | 2026-04-30 09:34 |
|---|---|
| Airport | Ninoy Aquino International Airport (RPLL) |
Arrival
| Time | N/A |
|---|---|
| Airport | Los Angeles International Airport (KLAX) |
| Time | Latitude | Longitude | Altitude | Speed | Heading |
|---|---|---|---|---|---|
| 2026-04-30 08:18 | 14.50427 | 121.00349 | 73 ft | 0 kts | 95° |
| 2026-04-30 09:17 | 14.50427 | 121.00347 | 101 ft | 3 kts | 96° |
| 2026-04-30 09:17 | 14.50429 | 121.00330 | 63 ft | 3 kts | 94° |
| 2026-04-30 09:17 | 14.50430 | 121.00310 | 63 ft | 3 kts | 111° |
| 2026-04-30 09:17 | 14.50440 | 121.00296 | 63 ft | 3 kts | 162° |
| 2026-04-30 09:18 | 14.50460 | 121.00293 | 63 ft | 2 kts | 185° |
| 2026-04-30 09:18 | 14.50445 | 121.00292 | 63 ft | 3 kts | 185° |
| 2026-04-30 09:18 | 14.50424 | 121.00290 | 63 ft | 3 kts | 185° |
| 2026-04-30 09:18 | 14.50403 | 121.00288 | 65 ft | 3 kts | 185° |
| 2026-04-30 09:19 | 14.50384 | 121.00287 | 63 ft | 1 kts | 185° |
| 2026-04-30 09:19 | 14.50383 | 121.00287 | 63 ft | 0 kts | 185° |
| 2026-04-30 09:23 | 14.50378 | 121.00286 | 64 ft | 2 kts | 185° |
| 2026-04-30 09:23 | 14.50350 | 121.00284 | 64 ft | 6 kts | 184° |
| 2026-04-30 09:23 | 14.50306 | 121.00280 | 65 ft | 7 kts | 184° |
| 2026-04-30 09:23 | 14.50259 | 121.00282 | 63 ft | 7 kts | 168° |
| 2026-04-30 09:24 | 14.50217 | 121.00301 | 67 ft | 7 kts | 151° |
| 2026-04-30 09:24 | 14.50177 | 121.00324 | 63 ft | 7 kts | 152° |
| 2026-04-30 09:24 | 14.50133 | 121.00324 | 72 ft | 7 kts | 204° |
| 2026-04-30 09:24 | 14.50099 | 121.00293 | 64 ft | 7 kts | 233° |
| 2026-04-30 09:25 | 14.50075 | 121.00253 | 63 ft | 7 kts | 240° |
| 2026-04-30 09:25 | 14.50052 | 121.00212 | 63 ft | 7 kts | 239° |
| 2026-04-30 09:25 | 14.50028 | 121.00169 | 63 ft | 9 kts | 240° |
| 2026-04-30 09:25 | 14.49997 | 121.00113 | 65 ft | 9 kts | 240° |
| 2026-04-30 09:26 | 14.49971 | 121.00065 | 68 ft | 7 kts | 240° |
| 2026-04-30 09:26 | 14.49948 | 121.00025 | 68 ft | 6 kts | 240° |
| 2026-04-30 09:26 | 14.49927 | 120.99989 | 65 ft | 6 kts | 234° |
| 2026-04-30 09:26 | 14.49898 | 120.99971 | 66 ft | 4 kts | 192° |
| 2026-04-30 09:27 | 14.49889 | 120.99971 | 66 ft | 0 kts | 182° |
| 2026-04-30 09:32 | 14.49886 | 120.99971 | 64 ft | 1 kts | 180° |
| 2026-04-30 09:32 | 14.49854 | 120.99980 | 69 ft | 7 kts | 158° |
| 2026-04-30 09:32 | 14.49819 | 121.00009 | 65 ft | 7 kts | 121° |
| 2026-04-30 09:33 | 14.49817 | 121.00055 | 69 ft | 7 kts | 77° |
| 2026-04-30 09:33 | 14.49873 | 121.00166 | 65 ft | 36 kts | 60° |
| 2026-04-30 09:33 | 14.50130 | 121.00630 | 63 ft | 113 kts | 60° |
| 2026-04-30 09:33 | 14.50644 | 121.01554 | 67 ft | 181 kts | 60° |
| 2026-04-30 09:34 | 14.51347 | 121.02791 | 391 ft | 205 kts | 64° |
| 2026-04-30 09:34 | 14.52070 | 121.04090 | 984 ft | 210 kts | 63° |
| 2026-04-30 09:34 | 14.52778 | 121.05369 | 1773 ft | 209 kts | 62° |
| 2026-04-30 09:34 | 14.53537 | 121.06730 | 2045 ft | 228 kts | 62° |
| 2026-04-30 09:35 | 14.54355 | 121.08219 | 2356 ft | 243 kts | 62° |
| 2026-04-30 09:35 | 14.55209 | 121.09772 | 2749 ft | 257 kts | 62° |
| 2026-04-30 09:35 | 14.56108 | 121.11398 | 3354 ft | 263 kts | 61° |
| 2026-04-30 09:35 | 14.57009 | 121.13052 | 3965 ft | 267 kts | 65° |
| 2026-04-30 09:36 | 14.57468 | 121.14903 | 4490 ft | 267 kts | 85° |
| 2026-04-30 09:36 | 14.57566 | 121.16182 | 4834 ft | 271 kts | 84° |
| 2026-04-30 09:36 | 14.57838 | 121.18750 | 5725 ft | 273 kts | 82° |
| 2026-04-30 09:36 | 14.57988 | 121.20069 | 6163 ft | 275 kts | 82° |
| 2026-04-30 09:37 | 14.58211 | 121.22024 | 6765 ft | 279 kts | 82° |
| 2026-04-30 09:37 | 14.58517 | 121.24689 | 7630 ft | 280 kts | 82° |
| 2026-04-30 09:37 | 14.58669 | 121.26019 | 8014 ft | 284 kts | 83° |
| 2026-04-30 09:37 | 14.58900 | 121.28056 | 8642 ft | 284 kts | 83° |
| 2026-04-30 09:38 | 14.59130 | 121.30091 | 9354 ft | 284 kts | 84° |
| 2026-04-30 09:38 | 14.59360 | 121.32128 | 9967 ft | 287 kts | 84° |
| 2026-04-30 09:38 | 14.59590 | 121.34173 | 10411 ft | 295 kts | 84° |
| 2026-04-30 09:38 | 14.59833 | 121.36352 | 10577 ft | 315 kts | 84° |
| 2026-04-30 09:39 | 14.60093 | 121.38676 | 10730 ft | 335 kts | 84° |
| 2026-04-30 09:39 | 14.60370 | 121.41146 | 10861 ft | 356 kts | 84° |
| 2026-04-30 09:39 | 14.60660 | 121.43730 | 11217 ft | 366 kts | 84° |
| 2026-04-30 09:39 | 14.60954 | 121.46343 | 11712 ft | 374 kts | 84° |
| 2026-04-30 09:40 | 14.61257 | 121.49044 | 12218 ft | 380 kts | 84° |
| 2026-04-30 09:40 | 14.61560 | 121.51752 | 12930 ft | 379 kts | 84° |
| 2026-04-30 09:40 | 14.61864 | 121.54479 | 13458 ft | 385 kts | 84° |
| 2026-04-30 09:40 | 14.62173 | 121.57251 | 13968 ft | 387 kts | 84° |
| 2026-04-30 09:41 | 14.62478 | 121.59979 | 14641 ft | 387 kts | 84° |
| 2026-04-30 09:41 | 14.62789 | 121.62761 | 15046 ft | 394 kts | 84° |
| 2026-04-30 09:41 | 14.63104 | 121.65596 | 15499 ft | 398 kts | 84° |
| 2026-04-30 09:41 | 14.63422 | 121.68452 | 15915 ft | 404 kts | 84° |
| 2026-04-30 09:42 | 14.63744 | 121.71358 | 16298 ft | 410 kts | 84° |
| 2026-04-30 09:42 | 14.64070 | 121.74297 | 16815 ft | 412 kts | 84° |
| 2026-04-30 09:42 | 14.64396 | 121.77246 | 17339 ft | 414 kts | 84° |
| 2026-04-30 09:42 | 14.64721 | 121.80183 | 17756 ft | 419 kts | 84° |
| 2026-04-30 09:43 | 14.65053 | 121.83180 | 18250 ft | 421 kts | 84° |
| 2026-04-30 09:43 | 14.65386 | 121.86197 | 18640 ft | 424 kts | 84° |
| 2026-04-30 09:43 | 14.65722 | 121.89245 | 19032 ft | 427 kts | 84° |
| 2026-04-30 09:43 | 14.66059 | 121.92305 | 19447 ft | 430 kts | 84° |
| 2026-04-30 09:44 | 14.66397 | 121.95388 | 19808 ft | 434 kts | 84° |
| 2026-04-30 09:44 | 14.66735 | 121.98460 | 20205 ft | 437 kts | 84° |
| 2026-04-30 09:44 | 14.67079 | 122.01596 | 20579 ft | 440 kts | 84° |
| 2026-04-30 09:44 | 14.67426 | 122.04759 | 20961 ft | 443 kts | 84° |
| 2026-04-30 09:45 | 14.67774 | 122.07942 | 21357 ft | 446 kts | 84° |
| 2026-04-30 09:45 | 14.68123 | 122.11135 | 21754 ft | 448 kts | 84° |
| 2026-04-30 09:45 | 14.68469 | 122.14311 | 22168 ft | 450 kts | 84° |
| 2026-04-30 09:45 | 14.68821 | 122.17533 | 22500 ft | 454 kts | 84° |
| 2026-04-30 09:46 | 14.69176 | 122.20794 | 22823 ft | 457 kts | 84° |
| 2026-04-30 09:46 | 14.69532 | 122.24069 | 23160 ft | 460 kts | 84° |
| 2026-04-30 09:46 | 14.69891 | 122.27372 | 23501 ft | 463 kts | 84° |
| 2026-04-30 09:46 | 14.70450 | 122.30643 | 23681 ft | 465 kts | 71° |
| 2026-04-30 09:47 | 14.71915 | 122.33595 | 23828 ft | 471 kts | 54° |
| 2026-04-30 09:47 | 14.74165 | 122.36076 | 24108 ft | 472 kts | 38° |
| 2026-04-30 09:47 | 14.76815 | 122.38103 | 24407 ft | 472 kts | 36° |
| 2026-04-30 09:47 | 14.79462 | 122.40079 | 24649 ft | 476 kts | 36° |
| 2026-04-30 09:48 | 14.82157 | 122.42101 | 24884 ft | 479 kts | 36° |
| 2026-04-30 09:48 | 14.84855 | 122.44145 | 25127 ft | 483 kts | 36° |
| 2026-04-30 09:48 | 14.87577 | 122.46226 | 25368 ft | 486 kts | 37° |
| 2026-04-30 09:48 | 14.90291 | 122.48317 | 25680 ft | 487 kts | 37° |
| 2026-04-30 09:49 | 14.92978 | 122.50398 | 25965 ft | 489 kts | 37° |
| 2026-04-30 09:49 | 14.95713 | 122.52520 | 26229 ft | 491 kts | 37° |
| 2026-04-30 09:49 | 14.98446 | 122.54644 | 26499 ft | 493 kts | 37° |
| 2026-04-30 09:49 | 15.01208 | 122.56790 | 26751 ft | 496 kts | 37° |
| 2026-04-30 09:50 | 15.03972 | 122.58938 | 27016 ft | 497 kts | 37° |
| 2026-04-30 09:50 | 15.06731 | 122.61082 | 27276 ft | 499 kts | 37° |
| 2026-04-30 09:50 | 15.09518 | 122.63248 | 27537 ft | 501 kts | 37° |
| 2026-04-30 09:50 | 15.12313 | 122.65420 | 27773 ft | 503 kts | 37° |
| 2026-04-30 09:51 | 15.15128 | 122.67609 | 27997 ft | 506 kts | 37° |
| 2026-04-30 09:51 | 15.17952 | 122.69805 | 28220 ft | 508 kts | 36° |
| 2026-04-30 09:51 | 15.20738 | 122.71973 | 28437 ft | 510 kts | 36° |
| 2026-04-30 09:51 | 15.23584 | 122.74188 | 28669 ft | 511 kts | 36° |
| 2026-04-30 09:52 | 15.26449 | 122.76419 | 28867 ft | 513 kts | 36° |
| 2026-04-30 09:52 | 15.29312 | 122.78649 | 29074 ft | 515 kts | 36° |
| 2026-04-30 09:52 | 15.32186 | 122.80888 | 29266 ft | 517 kts | 36° |
| 2026-04-30 09:52 | 15.35069 | 122.83135 | 29462 ft | 519 kts | 36° |
| 2026-04-30 09:53 | 15.37928 | 122.85364 | 29578 ft | 522 kts | 36° |
| 2026-04-30 09:53 | 15.40832 | 122.87630 | 29766 ft | 523 kts | 36° |
| 2026-04-30 09:53 | 15.43739 | 122.89898 | 30060 ft | 522 kts | 36° |
| 2026-04-30 09:53 | 15.46645 | 122.92167 | 30410 ft | 518 kts | 36° |
| 2026-04-30 09:54 | 15.49522 | 122.94414 | 30670 ft | 518 kts | 36° |
| 2026-04-30 09:54 | 15.52380 | 122.96647 | 30834 ft | 519 kts | 36° |
| 2026-04-30 09:54 | 15.58193 | 123.01190 | 30919 ft | 523 kts | 36° |
| 2026-04-30 09:55 | 15.63999 | 123.05732 | 30945 ft | 527 kts | 36° |
| 2026-04-30 09:55 | 15.69884 | 123.10337 | 30963 ft | 531 kts | 36° |
| 2026-04-30 09:56 | 15.75779 | 123.14955 | 30961 ft | 533 kts | 36° |
| 2026-04-30 09:56 | 15.81679 | 123.19582 | 30938 ft | 526 kts | 36° |
| 2026-04-30 09:57 | 15.87497 | 123.24149 | 30961 ft | 523 kts | 36° |
| 2026-04-30 09:57 | 15.93287 | 123.28696 | 30947 ft | 525 kts | 36° |
| 2026-04-30 09:58 | 15.99123 | 123.33283 | 30959 ft | 526 kts | 36° |
| 2026-04-30 09:58 | 16.04966 | 123.37879 | 30960 ft | 526 kts | 36° |
| 2026-04-30 09:59 | 16.16623 | 123.47059 | 30950 ft | 527 kts | 36° |
| 2026-04-30 10:00 | 16.25403 | 123.53983 | 30968 ft | 527 kts | 36° |
| 2026-04-30 10:01 | 16.34162 | 123.60897 | 30954 ft | 528 kts | 36° |
| 2026-04-30 10:02 | 16.42958 | 123.67849 | 30955 ft | 528 kts | 36° |
| 2026-04-30 10:02 | 16.48788 | 123.72461 | 30971 ft | 528 kts | 36° |
| 2026-04-30 10:03 | 16.54654 | 123.77106 | 30963 ft | 528 kts | 36° |
| 2026-04-30 10:03 | 16.60510 | 123.81745 | 30963 ft | 528 kts | 36° |
| 2026-04-30 10:04 | 16.66336 | 123.86365 | 30962 ft | 528 kts | 36° |
| 2026-04-30 10:04 | 16.72201 | 123.91020 | 30962 ft | 529 kts | 36° |
| 2026-04-30 10:05 | 16.78027 | 123.95647 | 30964 ft | 529 kts | 36° |
| 2026-04-30 10:05 | 16.83886 | 124.00304 | 30964 ft | 529 kts | 36° |
| 2026-04-30 10:06 | 16.89754 | 124.04972 | 30965 ft | 529 kts | 36° |
| 2026-04-30 10:06 | 16.95576 | 124.09607 | 30965 ft | 529 kts | 36° |
| 2026-04-30 10:07 | 17.01436 | 124.14277 | 30965 ft | 529 kts | 36° |
| 2026-04-30 10:07 | 17.07302 | 124.18955 | 30967 ft | 529 kts | 36° |
| 2026-04-30 10:08 | 17.13134 | 124.23609 | 30970 ft | 529 kts | 36° |
| 2026-04-30 10:08 | 17.19007 | 124.28300 | 30964 ft | 529 kts | 36° |
| 2026-04-30 10:09 | 17.24822 | 124.32949 | 30968 ft | 529 kts | 36° |
| 2026-04-30 10:09 | 17.30646 | 124.37609 | 30967 ft | 529 kts | 36° |
| 2026-04-30 10:10 | 17.36500 | 124.42297 | 30964 ft | 529 kts | 36° |
| 2026-04-30 10:10 | 17.42349 | 124.46982 | 30979 ft | 529 kts | 36° |
| 2026-04-30 10:11 | 17.48197 | 124.51670 | 30969 ft | 529 kts | 36° |
| 2026-04-30 10:11 | 17.54012 | 124.56337 | 30967 ft | 529 kts | 36° |
| 2026-04-30 10:12 | 17.59854 | 124.61030 | 30967 ft | 528 kts | 36° |
| 2026-04-30 10:12 | 17.65673 | 124.65709 | 30977 ft | 528 kts | 36° |
| 2026-04-30 10:13 | 17.71515 | 124.70411 | 30973 ft | 528 kts | 36° |
| 2026-04-30 10:13 | 17.77338 | 124.75100 | 30969 ft | 528 kts | 36° |
| 2026-04-30 10:14 | 17.83176 | 124.79806 | 30978 ft | 528 kts | 36° |
| 2026-04-30 10:14 | 17.91889 | 124.86837 | 30980 ft | 528 kts | 36° |
| 2026-04-30 10:15 | 17.97729 | 124.91554 | 30974 ft | 528 kts | 36° |
| 2026-04-30 10:15 | 18.03522 | 124.96238 | 30978 ft | 528 kts | 36° |
| 2026-04-30 10:16 | 18.09343 | 125.00947 | 30977 ft | 528 kts | 36° |
| 2026-04-30 10:17 | 18.18046 | 125.07997 | 30983 ft | 527 kts | 36° |
| 2026-04-30 10:17 | 18.26752 | 125.15059 | 30979 ft | 527 kts | 36° |
| 2026-04-30 10:18 | 18.32577 | 125.19788 | 30982 ft | 527 kts | 36° |
| 2026-04-30 10:19 | 18.41269 | 125.26853 | 30984 ft | 527 kts | 36° |
| 2026-04-30 10:19 | 18.47070 | 125.31575 | 30983 ft | 527 kts | 36° |
| 2026-04-30 10:20 | 18.52879 | 125.36305 | 30981 ft | 526 kts | 36° |
| 2026-04-30 10:20 | 18.61571 | 125.43393 | 30990 ft | 526 kts | 36° |
| 2026-04-30 10:21 | 18.67368 | 125.48125 | 30983 ft | 527 kts | 36° |
| 2026-04-30 10:21 | 18.73138 | 125.52838 | 30985 ft | 526 kts | 36° |
| 2026-04-30 10:22 | 18.78914 | 125.57561 | 30985 ft | 526 kts | 36° |
| 2026-04-30 10:22 | 18.84710 | 125.62305 | 30986 ft | 526 kts | 36° |
| 2026-04-30 10:23 | 18.90502 | 125.67050 | 30986 ft | 527 kts | 36° |
| 2026-04-30 10:23 | 18.96262 | 125.71773 | 30987 ft | 527 kts | 36° |
| 2026-04-30 10:24 | 19.02069 | 125.76538 | 30990 ft | 527 kts | 36° |
| 2026-04-30 10:24 | 19.06880 | 125.80489 | 30989 ft | 527 kts | 36° |
| 2026-04-30 10:25 | 19.12672 | 125.85251 | 30987 ft | 526 kts | 36° |
| 2026-04-30 10:25 | 19.18457 | 125.90010 | 30989 ft | 526 kts | 36° |
| 2026-04-30 10:26 | 19.24214 | 125.94751 | 30992 ft | 526 kts | 36° |
| 2026-04-30 10:26 | 19.30935 | 126.00291 | 30992 ft | 526 kts | 36° |
| 2026-04-30 10:27 | 19.35735 | 126.04252 | 30996 ft | 526 kts | 36° |
| 2026-04-30 10:27 | 19.41530 | 126.09037 | 30992 ft | 527 kts | 36° |
| 2026-04-30 10:28 | 19.47291 | 126.13799 | 30989 ft | 527 kts | 36° |
| 2026-04-30 10:28 | 19.53075 | 126.18584 | 30990 ft | 527 kts | 36° |
| 2026-04-30 10:29 | 19.58875 | 126.23387 | 30995 ft | 528 kts | 36° |
| 2026-04-30 10:29 | 19.64633 | 126.28159 | 30991 ft | 528 kts | 36° |
| 2026-04-30 10:30 | 19.70418 | 126.32960 | 30993 ft | 528 kts | 36° |
| 2026-04-30 10:30 | 19.76182 | 126.37746 | 30994 ft | 527 kts | 36° |
| 2026-04-30 10:31 | 19.81969 | 126.42556 | 30995 ft | 528 kts | 36° |
| 2026-04-30 10:31 | 19.87730 | 126.47349 | 30994 ft | 527 kts | 36° |
| 2026-04-30 10:32 | 19.93517 | 126.52169 | 30994 ft | 527 kts | 36° |
| 2026-04-30 10:32 | 19.99296 | 126.56986 | 30996 ft | 527 kts | 36° |
| 2026-04-30 10:33 | 20.05057 | 126.61794 | 30999 ft | 527 kts | 36° |
| 2026-04-30 10:33 | 20.10842 | 126.66624 | 30997 ft | 527 kts | 36° |
| 2026-04-30 10:34 | 20.16585 | 126.71426 | 30997 ft | 528 kts | 36° |
| 2026-04-30 10:34 | 20.22369 | 126.76266 | 30995 ft | 528 kts | 36° |
| 2026-04-30 10:35 | 20.28107 | 126.81072 | 31000 ft | 528 kts | 36° |
| 2026-04-30 10:35 | 20.33870 | 126.85904 | 30997 ft | 528 kts | 36° |
| 2026-04-30 10:36 | 20.39648 | 126.90754 | 30999 ft | 528 kts | 36° |
| 2026-04-30 10:36 | 20.45423 | 126.95605 | 31007 ft | 528 kts | 36° |
| 2026-04-30 10:37 | 20.51200 | 127.00464 | 30996 ft | 529 kts | 36° |
| 2026-04-30 10:37 | 20.56956 | 127.05308 | 31002 ft | 529 kts | 36° |
| 2026-04-30 10:38 | 20.62743 | 127.10184 | 31000 ft | 529 kts | 36° |
| 2026-04-30 10:38 | 20.68501 | 127.15041 | 31000 ft | 529 kts | 36° |
| 2026-04-30 10:39 | 20.74285 | 127.19925 | 31002 ft | 529 kts | 36° |
| 2026-04-30 10:39 | 20.80069 | 127.24813 | 30998 ft | 529 kts | 36° |
| 2026-04-30 10:40 | 20.85820 | 127.29679 | 31003 ft | 529 kts | 36° |
| 2026-04-30 10:40 | 20.91588 | 127.34564 | 31009 ft | 529 kts | 36° |
| 2026-04-30 10:41 | 20.97374 | 127.39469 | 31002 ft | 529 kts | 36° |
| 2026-04-30 10:41 | 21.03136 | 127.44316 | 31004 ft | 529 kts | 35° |
| 2026-04-30 10:42 | 21.09016 | 127.49104 | 30998 ft | 529 kts | 34° |
| 2026-04-30 10:42 | 21.14867 | 127.53845 | 31006 ft | 530 kts | 34° |
| 2026-04-30 10:43 | 21.20751 | 127.58641 | 31006 ft | 531 kts | 35° |
| 2026-04-30 10:43 | 21.26594 | 127.63425 | 31008 ft | 531 kts | 35° |
| 2026-04-30 10:44 | 21.32479 | 127.68253 | 31008 ft | 531 kts | 35° |
| 2026-04-30 10:44 | 21.38364 | 127.73083 | 31004 ft | 532 kts | 34° |
| 2026-04-30 10:45 | 21.44244 | 127.77913 | 31011 ft | 532 kts | 34° |
| 2026-04-30 10:45 | 21.50090 | 127.82720 | 31011 ft | 532 kts | 35° |
| 2026-04-30 10:46 | 21.55979 | 127.87567 | 31011 ft | 532 kts | 34° |
| 2026-04-30 10:46 | 21.61869 | 127.92421 | 31007 ft | 533 kts | 34° |
| 2026-04-30 10:47 | 21.67726 | 127.97252 | 31008 ft | 533 kts | 34° |
| 2026-04-30 10:47 | 21.73609 | 128.02109 | 31014 ft | 532 kts | 35° |
| 2026-04-30 10:48 | 21.79467 | 128.06952 | 31017 ft | 533 kts | 34° |
| 2026-04-30 10:48 | 21.85358 | 128.11826 | 31010 ft | 533 kts | 34° |
| 2026-04-30 10:49 | 21.91218 | 128.16681 | 31011 ft | 533 kts | 34° |
| 2026-04-30 10:49 | 21.97121 | 128.21575 | 31016 ft | 533 kts | 34° |
| 2026-04-30 10:50 | 22.02972 | 128.26433 | 31011 ft | 534 kts | 34° |
| 2026-04-30 10:50 | 22.08873 | 128.31336 | 31011 ft | 534 kts | 34° |
| 2026-04-30 10:51 | 22.14765 | 128.36238 | 31011 ft | 534 kts | 34° |
| 2026-04-30 10:51 | 22.20624 | 128.41117 | 31017 ft | 535 kts | 34° |
| 2026-04-30 10:52 | 22.26537 | 128.46048 | 31015 ft | 536 kts | 34° |
| 2026-04-30 10:52 | 22.32427 | 128.50963 | 31013 ft | 537 kts | 34° |
| 2026-04-30 10:53 | 22.38311 | 128.55880 | 31012 ft | 537 kts | 34° |
| 2026-04-30 10:53 | 22.44244 | 128.60843 | 31011 ft | 538 kts | 34° |
| 2026-04-30 10:54 | 22.50133 | 128.65774 | 31013 ft | 538 kts | 34° |
| 2026-04-30 10:54 | 22.56050 | 128.70735 | 31006 ft | 538 kts | 35° |
| 2026-04-30 10:55 | 22.61970 | 128.75704 | 31023 ft | 537 kts | 35° |
| 2026-04-30 10:55 | 22.67886 | 128.80675 | 31015 ft | 538 kts | 35° |
| 2026-04-30 10:56 | 22.73770 | 128.85625 | 31016 ft | 538 kts | 35° |
| 2026-04-30 10:56 | 22.79690 | 128.90611 | 31007 ft | 538 kts | 35° |
| 2026-04-30 10:57 | 22.85605 | 128.95597 | 31013 ft | 537 kts | 35° |
| 2026-04-30 10:57 | 22.91481 | 129.00558 | 31013 ft | 537 kts | 35° |
| 2026-04-30 10:58 | 22.97394 | 129.05555 | 31015 ft | 538 kts | 35° |
| 2026-04-30 10:58 | 23.03307 | 129.10482 | 31017 ft | 537 kts | 33° |
| 2026-04-30 10:59 | 23.09434 | 129.15122 | 31010 ft | 536 kts | 31° |
| 2026-04-30 10:59 | 23.15562 | 129.19665 | 31015 ft | 536 kts | 31° |
| 2026-04-30 11:00 | 23.21704 | 129.24292 | 31022 ft | 537 kts | 32° |
| 2026-04-30 11:00 | 23.27839 | 129.28971 | 31014 ft | 537 kts | 32° |
| 2026-04-30 11:01 | 23.33928 | 129.33632 | 31021 ft | 537 kts | 32° |
| 2026-04-30 11:01 | 23.40026 | 129.38299 | 31013 ft | 537 kts | 32° |
| 2026-04-30 11:02 | 23.46153 | 129.42990 | 31013 ft | 537 kts | 32° |
| 2026-04-30 11:02 | 23.52235 | 129.47651 | 31016 ft | 537 kts | 32° |
| 2026-04-30 11:03 | 23.58360 | 129.52350 | 31021 ft | 536 kts | 32° |
| 2026-04-30 11:04 | 23.67489 | 129.59365 | 31008 ft | 536 kts | 32° |
| 2026-04-30 11:04 | 23.73612 | 129.64077 | 31022 ft | 536 kts | 32° |
| 2026-04-30 11:05 | 23.79690 | 129.68760 | 31024 ft | 536 kts | 32° |
| 2026-04-30 11:05 | 23.85798 | 129.73471 | 31018 ft | 536 kts | 32° |
| 2026-04-30 11:06 | 23.91863 | 129.78155 | 31011 ft | 536 kts | 32° |
| 2026-04-30 11:06 | 23.97968 | 129.82876 | 31017 ft | 535 kts | 32° |
| 2026-04-30 11:07 | 24.04018 | 129.87558 | 31025 ft | 535 kts | 32° |
| 2026-04-30 11:07 | 24.10111 | 129.92281 | 31019 ft | 535 kts | 32° |
| 2026-04-30 11:08 | 24.16157 | 129.96972 | 31017 ft | 534 kts | 32° |
| 2026-04-30 11:08 | 24.22228 | 130.01689 | 31026 ft | 534 kts | 32° |
| 2026-04-30 11:09 | 24.28283 | 130.06399 | 31013 ft | 533 kts | 32° |
| 2026-04-30 11:09 | 24.34333 | 130.11110 | 31016 ft | 533 kts | 32° |
| 2026-04-30 11:10 | 24.40373 | 130.15746 | 31025 ft | 532 kts | 31° |
| 2026-04-30 11:10 | 24.46508 | 130.20336 | 31022 ft | 532 kts | 31° |
| 2026-04-30 11:11 | 24.52591 | 130.24890 | 31016 ft | 532 kts | 31° |
| 2026-04-30 11:11 | 24.58718 | 130.29505 | 31015 ft | 532 kts | 31° |
| 2026-04-30 11:12 | 24.64827 | 130.34122 | 31019 ft | 533 kts | 32° |
| 2026-04-30 11:12 | 24.70912 | 130.38727 | 31016 ft | 533 kts | 32° |
| 2026-04-30 11:13 | 24.77000 | 130.43338 | 31017 ft | 533 kts | 32° |
| 2026-04-30 11:13 | 24.83119 | 130.47978 | 31011 ft | 533 kts | 32° |
| 2026-04-30 11:14 | 24.89237 | 130.52623 | 31018 ft | 533 kts | 32° |
| 2026-04-30 11:14 | 24.94320 | 130.56487 | 31015 ft | 533 kts | 32° |
| 2026-04-30 11:15 | 25.00388 | 130.61103 | 31020 ft | 533 kts | 32° |
| 2026-04-30 11:15 | 25.06501 | 130.65760 | 31013 ft | 533 kts | 32° |
| 2026-04-30 11:16 | 25.12577 | 130.70395 | 31017 ft | 533 kts | 32° |
| 2026-04-30 11:16 | 25.18660 | 130.75041 | 31026 ft | 533 kts | 32° |
| 2026-04-30 11:17 | 25.24769 | 130.79712 | 31013 ft | 533 kts | 32° |
| 2026-04-30 11:17 | 25.30882 | 130.84392 | 31011 ft | 533 kts | 32° |
| 2026-04-30 11:18 | 25.36945 | 130.89041 | 31018 ft | 533 kts | 32° |
| 2026-04-30 11:18 | 25.46117 | 130.96083 | 31015 ft | 533 kts | 32° |
| 2026-04-30 11:19 | 25.52177 | 131.00743 | 31012 ft | 533 kts | 32° |
| 2026-04-30 11:19 | 25.58275 | 131.05438 | 31017 ft | 534 kts | 33° |
| 2026-04-30 11:20 | 25.64376 | 131.10142 | 31011 ft | 534 kts | 33° |
| 2026-04-30 11:20 | 25.70457 | 131.14837 | 31007 ft | 534 kts | 33° |
| 2026-04-30 11:21 | 25.76571 | 131.19563 | 31008 ft | 534 kts | 33° |
| 2026-04-30 11:21 | 25.82499 | 131.24465 | 30995 ft | 535 kts | 43° |
| 2026-04-30 11:22 | 25.86960 | 131.31101 | 31012 ft | 537 kts | 62° |
| 2026-04-30 11:22 | 25.89649 | 131.38817 | 31019 ft | 536 kts | 71° |
| 2026-04-30 11:23 | 25.92086 | 131.46638 | 31015 ft | 539 kts | 71° |
| 2026-04-30 11:24 | 25.95873 | 131.58408 | 31008 ft | 541 kts | 70° |
| 2026-04-30 11:24 | 25.98447 | 131.66281 | 31010 ft | 541 kts | 70° |
| 2026-04-30 11:25 | 26.02279 | 131.78036 | 30998 ft | 540 kts | 70° |
| 2026-04-30 11:26 | 26.07368 | 131.93746 | 31006 ft | 539 kts | 70° |
| 2026-04-30 11:26 | 26.09889 | 132.01552 | 31001 ft | 538 kts | 70° |
| 2026-04-30 11:27 | 26.12425 | 132.09421 | 31019 ft | 538 kts | 71° |
| 2026-04-30 11:27 | 26.14939 | 132.17240 | 31012 ft | 539 kts | 71° |
| 2026-04-30 11:28 | 26.18714 | 132.29008 | 31018 ft | 539 kts | 71° |
| 2026-04-30 11:29 | 26.21238 | 132.36899 | 31009 ft | 539 kts | 71° |
| 2026-04-30 11:29 | 26.24996 | 132.48677 | 31007 ft | 540 kts | 71° |
| 2026-04-30 11:30 | 26.28769 | 132.60543 | 31018 ft | 541 kts | 71° |
| 2026-04-30 11:31 | 26.31279 | 132.68457 | 31019 ft | 541 kts | 71° |
| 2026-04-30 11:31 | 26.33772 | 132.76335 | 31020 ft | 540 kts | 71° |
| 2026-04-30 11:32 | 26.36259 | 132.84209 | 31018 ft | 540 kts | 71° |
| 2026-04-30 11:32 | 26.38756 | 132.92133 | 31018 ft | 540 kts | 71° |
| 2026-04-30 11:33 | 26.42474 | 133.03965 | 31017 ft | 540 kts | 71° |
| 2026-04-30 11:33 | 26.44957 | 133.11890 | 31023 ft | 540 kts | 71° |
| 2026-04-30 11:34 | 26.47422 | 133.19776 | 31021 ft | 540 kts | 71° |
| 2026-04-30 11:34 | 26.49897 | 133.27705 | 31024 ft | 540 kts | 71° |
| 2026-04-30 11:35 | 26.52364 | 133.35639 | 31024 ft | 540 kts | 71° |
| 2026-04-30 11:35 | 26.54811 | 133.43536 | 31021 ft | 541 kts | 71° |
| 2026-04-30 11:36 | 26.57273 | 133.51501 | 31027 ft | 541 kts | 71° |
| 2026-04-30 11:36 | 26.59734 | 133.59477 | 31028 ft | 542 kts | 71° |
| 2026-04-30 11:37 | 26.62175 | 133.67405 | 31032 ft | 541 kts | 71° |
| 2026-04-30 11:37 | 26.64623 | 133.75375 | 31035 ft | 542 kts | 71° |
| 2026-04-30 11:38 | 26.67067 | 133.83348 | 31021 ft | 542 kts | 71° |
| 2026-04-30 11:38 | 26.69492 | 133.91280 | 31031 ft | 541 kts | 71° |
| 2026-04-30 11:39 | 26.71924 | 133.99247 | 31034 ft | 541 kts | 71° |
| 2026-04-30 11:39 | 26.74907 | 134.06980 | 31028 ft | 540 kts | 60° |
| 2026-04-30 11:40 | 26.78867 | 134.14127 | 31032 ft | 539 kts | 56° |
| 2026-04-30 11:40 | 26.82874 | 134.21182 | 31035 ft | 540 kts | 57° |
| 2026-04-30 11:41 | 26.86875 | 134.28328 | 31039 ft | 540 kts | 57° |
| 2026-04-30 11:41 | 26.90829 | 134.35465 | 31035 ft | 541 kts | 57° |
| 2026-04-30 11:42 | 26.94772 | 134.42607 | 31027 ft | 541 kts | 57° |
| 2026-04-30 11:42 | 26.98733 | 134.49789 | 31045 ft | 540 kts | 57° |
| 2026-04-30 11:43 | 27.02683 | 134.56957 | 31215 ft | 543 kts | 57° |
| 2026-04-30 11:43 | 27.04671 | 134.60567 | 31536 ft | 541 kts | 57° |
| 2026-04-30 11:43 | 27.06641 | 134.64150 | 31879 ft | 538 kts | 57° |
| 2026-04-30 11:44 | 27.08599 | 134.67713 | 32219 ft | 535 kts | 57° |
| 2026-04-30 11:44 | 27.10536 | 134.71240 | 32478 ft | 535 kts | 57° |
| 2026-04-30 11:44 | 27.12498 | 134.74815 | 32603 ft | 537 kts | 57° |
| 2026-04-30 11:44 | 27.14467 | 134.78405 | 32780 ft | 538 kts | 57° |
| 2026-04-30 11:45 | 27.16431 | 134.81989 | 32950 ft | 538 kts | 57° |
| 2026-04-30 11:45 | 27.18396 | 134.85579 | 32995 ft | 539 kts | 57° |
| 2026-04-30 11:45 | 27.22293 | 134.92708 | 33035 ft | 537 kts | 57° |
| 2026-04-30 11:46 | 27.26211 | 134.99888 | 33033 ft | 537 kts | 57° |
| 2026-04-30 11:46 | 27.30101 | 135.07027 | 33035 ft | 537 kts | 57° |
| 2026-04-30 11:47 | 27.33997 | 135.14188 | 33033 ft | 537 kts | 57° |
| 2026-04-30 11:47 | 27.37894 | 135.21363 | 33034 ft | 537 kts | 57° |
| 2026-04-30 11:48 | 27.41791 | 135.28551 | 33036 ft | 537 kts | 57° |
| 2026-04-30 11:48 | 27.45660 | 135.35697 | 33036 ft | 537 kts | 57° |
| 2026-04-30 11:49 | 27.49552 | 135.42899 | 33039 ft | 537 kts | 57° |
| 2026-04-30 11:49 | 27.53427 | 135.50079 | 33035 ft | 538 kts | 57° |
| 2026-04-30 11:50 | 27.57305 | 135.57280 | 33036 ft | 538 kts | 57° |
| 2026-04-30 11:50 | 27.61172 | 135.64470 | 33037 ft | 537 kts | 57° |
| 2026-04-30 11:51 | 27.65055 | 135.71705 | 33039 ft | 537 kts | 57° |
| 2026-04-30 11:51 | 27.68906 | 135.78889 | 33045 ft | 537 kts | 57° |
| 2026-04-30 11:52 | 27.72775 | 135.86120 | 33039 ft | 537 kts | 57° |
| 2026-04-30 11:52 | 27.76617 | 135.93313 | 33038 ft | 537 kts | 57° |
| 2026-04-30 11:53 | 27.80475 | 136.00547 | 33044 ft | 537 kts | 57° |
| 2026-04-30 11:53 | 27.84333 | 136.07794 | 33040 ft | 536 kts | 57° |
| 2026-04-30 11:54 | 27.88159 | 136.14992 | 33042 ft | 536 kts | 57° |
| 2026-04-30 11:54 | 27.92006 | 136.22242 | 33044 ft | 536 kts | 57° |
| 2026-04-30 11:55 | 27.95821 | 136.29446 | 33044 ft | 536 kts | 57° |
| 2026-04-30 11:55 | 27.99665 | 136.36714 | 33046 ft | 536 kts | 57° |
| 2026-04-30 11:56 | 28.03472 | 136.43927 | 33043 ft | 536 kts | 57° |
| 2026-04-30 11:56 | 28.07297 | 136.51185 | 33048 ft | 536 kts | 57° |
| 2026-04-30 11:57 | 28.11100 | 136.58413 | 33051 ft | 536 kts | 57° |
| 2026-04-30 11:57 | 28.14923 | 136.65693 | 33049 ft | 536 kts | 57° |
| 2026-04-30 11:58 | 28.18731 | 136.72957 | 33046 ft | 536 kts | 57° |
| 2026-04-30 11:58 | 28.22538 | 136.80229 | 33053 ft | 536 kts | 57° |
| 2026-04-30 11:59 | 28.26318 | 136.87464 | 33045 ft | 535 kts | 57° |
| 2026-04-30 11:59 | 28.30122 | 136.94758 | 33054 ft | 535 kts | 57° |
| 2026-04-30 12:00 | 28.33892 | 137.01998 | 33055 ft | 534 kts | 57° |
| 2026-04-30 12:00 | 28.37679 | 137.09283 | 33056 ft | 534 kts | 57° |
| 2026-04-30 12:01 | 28.41440 | 137.16531 | 33054 ft | 534 kts | 57° |
| 2026-04-30 12:01 | 28.45216 | 137.23822 | 33055 ft | 534 kts | 57° |
| 2026-04-30 12:02 | 28.48956 | 137.31054 | 33056 ft | 534 kts | 57° |
| 2026-04-30 12:02 | 28.52725 | 137.38357 | 33054 ft | 534 kts | 57° |
| 2026-04-30 12:03 | 28.58353 | 137.49281 | 33057 ft | 535 kts | 57° |
| 2026-04-30 12:04 | 28.61483 | 137.55373 | 33055 ft | 535 kts | 57° |
| 2026-04-30 12:04 | 28.65248 | 137.62709 | 33061 ft | 535 kts | 57° |
| 2026-04-30 12:05 | 28.68978 | 137.69990 | 33055 ft | 535 kts | 57° |
| 2026-04-30 12:05 | 28.73353 | 137.78546 | 33057 ft | 535 kts | 58° |
| 2026-04-30 12:06 | 28.76471 | 137.84656 | 33064 ft | 535 kts | 58° |
| 2026-04-30 12:06 | 28.80200 | 137.91974 | 33061 ft | 535 kts | 58° |
| 2026-04-30 12:07 | 28.83939 | 137.99325 | 33060 ft | 535 kts | 58° |
| 2026-04-30 12:07 | 28.87675 | 138.06682 | 33063 ft | 535 kts | 58° |
| 2026-04-30 12:08 | 28.91378 | 138.13988 | 33063 ft | 535 kts | 58° |
| 2026-04-30 12:08 | 28.95107 | 138.21359 | 33063 ft | 535 kts | 58° |
| 2026-04-30 12:09 | 28.98814 | 138.28698 | 33064 ft | 535 kts | 58° |
| 2026-04-30 12:09 | 29.02533 | 138.36077 | 33068 ft | 535 kts | 58° |
| 2026-04-30 12:10 | 29.06256 | 138.43473 | 33070 ft | 536 kts | 58° |
| 2026-04-30 12:10 | 29.09953 | 138.50834 | 33070 ft | 536 kts | 58° |
| 2026-04-30 12:11 | 29.13673 | 138.58254 | 33072 ft | 536 kts | 58° |
| 2026-04-30 12:11 | 29.17369 | 138.65639 | 33067 ft | 536 kts | 58° |
| 2026-04-30 12:12 | 29.21074 | 138.73054 | 33069 ft | 536 kts | 58° |
| 2026-04-30 12:12 | 29.24756 | 138.80439 | 33072 ft | 536 kts | 58° |
| 2026-04-30 12:13 | 29.28456 | 138.87871 | 33077 ft | 536 kts | 58° |
| 2026-04-30 12:13 | 29.32137 | 138.95280 | 33073 ft | 537 kts | 58° |
| 2026-04-30 12:14 | 29.35827 | 139.02721 | 33076 ft | 537 kts | 58° |
| 2026-04-30 12:14 | 29.39520 | 139.10182 | 33084 ft | 537 kts | 58° |
| 2026-04-30 12:15 | 29.43213 | 139.17655 | 33075 ft | 537 kts | 58° |
| 2026-04-30 12:15 | 29.46878 | 139.25087 | 33081 ft | 537 kts | 58° |
| 2026-04-30 12:16 | 29.50556 | 139.32558 | 33084 ft | 538 kts | 58° |
| 2026-04-30 12:16 | 29.54238 | 139.40051 | 33082 ft | 538 kts | 58° |
| 2026-04-30 12:17 | 29.59724 | 139.51242 | 33086 ft | 538 kts | 58° |
| 2026-04-30 12:17 | 29.63401 | 139.58761 | 33083 ft | 539 kts | 58° |
| 2026-04-30 12:18 | 29.67075 | 139.66288 | 33088 ft | 539 kts | 58° |
| 2026-04-30 12:18 | 29.70721 | 139.73770 | 33088 ft | 539 kts | 58° |
| 2026-04-30 12:19 | 29.74398 | 139.81332 | 33086 ft | 540 kts | 59° |
| 2026-04-30 12:19 | 29.78042 | 139.88841 | 33092 ft | 540 kts | 59° |
| 2026-04-30 12:20 | 29.81711 | 139.96415 | 33092 ft | 541 kts | 59° |
| 2026-04-30 12:20 | 29.85373 | 140.03987 | 33092 ft | 541 kts | 59° |
| 2026-04-30 12:21 | 29.89016 | 140.11537 | 33099 ft | 541 kts | 59° |
| 2026-04-30 12:21 | 29.92672 | 140.19128 | 33102 ft | 542 kts | 59° |
| 2026-04-30 12:22 | 29.96337 | 140.26752 | 33097 ft | 542 kts | 59° |
| 2026-04-30 12:22 | 29.99973 | 140.34329 | 33102 ft | 542 kts | 59° |
| 2026-04-30 12:23 | 30.03601 | 140.41982 | 33106 ft | 542 kts | 59° |
| 2026-04-30 12:23 | 30.07195 | 140.49657 | 33101 ft | 543 kts | 59° |
| 2026-04-30 12:24 | 30.10762 | 140.57290 | 33108 ft | 543 kts | 59° |
| 2026-04-30 12:24 | 30.14350 | 140.64966 | 33112 ft | 542 kts | 59° |
| 2026-04-30 12:25 | 30.17920 | 140.72612 | 33112 ft | 542 kts | 59° |
| 2026-04-30 12:25 | 30.21505 | 140.80304 | 33113 ft | 542 kts | 60° |
| 2026-04-30 12:26 | 30.25081 | 140.87994 | 33119 ft | 542 kts | 60° |
| 2026-04-30 12:26 | 30.28655 | 140.95693 | 33117 ft | 542 kts | 60° |
| 2026-04-30 12:27 | 30.32205 | 141.03357 | 33117 ft | 542 kts | 60° |
| 2026-04-30 12:27 | 30.35768 | 141.11066 | 33124 ft | 542 kts | 60° |
| 2026-04-30 12:28 | 30.39330 | 141.18787 | 33118 ft | 543 kts | 60° |
| 2026-04-30 12:28 | 30.42861 | 141.26455 | 33122 ft | 543 kts | 60° |
| 2026-04-30 12:29 | 30.46417 | 141.34195 | 33128 ft | 543 kts | 60° |
| 2026-04-30 12:29 | 30.49966 | 141.41934 | 33136 ft | 544 kts | 60° |
| 2026-04-30 12:30 | 30.53511 | 141.49681 | 33129 ft | 545 kts | 60° |
| 2026-04-30 12:30 | 30.57079 | 141.57492 | 33129 ft | 545 kts | 60° |
| 2026-04-30 12:31 | 30.60619 | 141.65260 | 33131 ft | 546 kts | 60° |
| 2026-04-30 12:31 | 30.64173 | 141.73074 | 33133 ft | 546 kts | 60° |
| 2026-04-30 12:32 | 30.67699 | 141.80840 | 33133 ft | 546 kts | 60° |
| 2026-04-30 12:32 | 30.71236 | 141.88649 | 33124 ft | 546 kts | 60° |
| 2026-04-30 12:33 | 30.74755 | 141.96434 | 33144 ft | 546 kts | 60° |
| 2026-04-30 12:33 | 30.78295 | 142.04280 | 33147 ft | 546 kts | 60° |
| 2026-04-30 12:34 | 30.81823 | 142.12116 | 33153 ft | 546 kts | 60° |
| 2026-04-30 12:34 | 30.85327 | 142.19915 | 33152 ft | 546 kts | 60° |
| 2026-04-30 12:35 | 30.88846 | 142.27765 | 33132 ft | 546 kts | 60° |
| 2026-04-30 12:35 | 30.92363 | 142.35625 | 33146 ft | 546 kts | 60° |
| 2026-04-30 12:36 | 30.95849 | 142.43433 | 33159 ft | 546 kts | 60° |
| 2026-04-30 12:36 | 30.99359 | 142.51311 | 33165 ft | 547 kts | 60° |
| 2026-04-30 12:37 | 31.02864 | 142.59194 | 33152 ft | 547 kts | 60° |
| 2026-04-30 12:37 | 31.06343 | 142.67035 | 33160 ft | 547 kts | 61° |
| 2026-04-30 12:38 | 31.09842 | 142.74937 | 33158 ft | 547 kts | 61° |
| 2026-04-30 12:38 | 31.13314 | 142.82795 | 33170 ft | 547 kts | 61° |
| 2026-04-30 12:39 | 31.16804 | 142.90711 | 33164 ft | 547 kts | 61° |
| 2026-04-30 12:39 | 31.20291 | 142.98638 | 33174 ft | 547 kts | 61° |
| 2026-04-30 12:40 | 31.23746 | 143.06507 | 33168 ft | 547 kts | 61° |
| 2026-04-30 12:40 | 31.27227 | 143.14452 | 33166 ft | 547 kts | 61° |
| 2026-04-30 12:41 | 31.30669 | 143.22326 | 33172 ft | 547 kts | 61° |
| 2026-04-30 12:41 | 31.34128 | 143.30256 | 33181 ft | 547 kts | 61° |
| 2026-04-30 12:42 | 31.37591 | 143.38212 | 33178 ft | 547 kts | 61° |
| 2026-04-30 12:42 | 31.41025 | 143.46118 | 33198 ft | 547 kts | 61° |
| 2026-04-30 12:43 | 31.44485 | 143.54101 | 33192 ft | 548 kts | 61° |
| 2026-04-30 12:43 | 31.47923 | 143.62050 | 33191 ft | 549 kts | 61° |
| 2026-04-30 12:44 | 31.51379 | 143.70059 | 33190 ft | 550 kts | 61° |
| 2026-04-30 12:44 | 31.54813 | 143.78033 | 33197 ft | 551 kts | 61° |
| 2026-04-30 12:45 | 31.58271 | 143.86081 | 33194 ft | 552 kts | 61° |
| 2026-04-30 12:45 | 31.61708 | 143.94099 | 33194 ft | 552 kts | 61° |
| 2026-04-30 12:46 | 31.65165 | 144.02180 | 33197 ft | 552 kts | 61° |
| 2026-04-30 12:46 | 31.68612 | 144.10255 | 33196 ft | 552 kts | 61° |
| 2026-04-30 12:47 | 31.72030 | 144.18282 | 33198 ft | 552 kts | 62° |
| 2026-04-30 12:47 | 31.75465 | 144.26365 | 33208 ft | 552 kts | 61° |
| 2026-04-30 12:48 | 31.78880 | 144.34421 | 33202 ft | 552 kts | 61° |
| 2026-04-30 12:48 | 31.82286 | 144.42472 | 33212 ft | 552 kts | 62° |
| 2026-04-30 12:49 | 31.85703 | 144.50565 | 33213 ft | 552 kts | 62° |
| 2026-04-30 12:49 | 31.89122 | 144.58683 | 33209 ft | 552 kts | 62° |
| 2026-04-30 12:50 | 31.92530 | 144.66795 | 33210 ft | 553 kts | 62° |
| 2026-04-30 12:50 | 31.95919 | 144.74876 | 33216 ft | 553 kts | 62° |
| 2026-04-30 12:51 | 31.99326 | 144.83020 | 33218 ft | 553 kts | 62° |
| 2026-04-30 12:51 | 32.02705 | 144.91117 | 33217 ft | 554 kts | 62° |
| 2026-04-30 12:52 | 32.06109 | 144.99291 | 33219 ft | 554 kts | 62° |
| 2026-04-30 12:52 | 32.08936 | 145.06094 | 33221 ft | 554 kts | 62° |
| 2026-04-30 12:53 | 32.12880 | 145.15606 | 33221 ft | 555 kts | 62° |
| 2026-04-30 12:53 | 32.16261 | 145.23782 | 33227 ft | 555 kts | 62° |
| 2026-04-30 12:54 | 32.19081 | 145.30614 | 33229 ft | 555 kts | 62° |
| 2026-04-30 12:54 | 32.22442 | 145.38777 | 33229 ft | 555 kts | 62° |
| 2026-04-30 12:55 | 32.25820 | 145.46997 | 33226 ft | 555 kts | 62° |
| 2026-04-30 12:55 | 32.29194 | 145.55227 | 33236 ft | 555 kts | 62° |
| 2026-04-30 12:56 | 32.32540 | 145.63407 | 33238 ft | 555 kts | 62° |
| 2026-04-30 12:56 | 32.35890 | 145.71618 | 33234 ft | 555 kts | 62° |
| 2026-04-30 12:57 | 32.39246 | 145.79861 | 33254 ft | 556 kts | 62° |
| 2026-04-30 12:57 | 32.42610 | 145.88144 | 33243 ft | 557 kts | 62° |
| 2026-04-30 12:58 | 32.45954 | 145.96396 | 33241 ft | 558 kts | 62° |
| 2026-04-30 12:58 | 32.49300 | 146.04674 | 33250 ft | 559 kts | 62° |
| 2026-04-30 12:59 | 32.52658 | 146.13002 | 33248 ft | 560 kts | 62° |
| 2026-04-30 12:59 | 32.56015 | 146.21347 | 33248 ft | 560 kts | 62° |
| 2026-04-30 13:00 | 32.59355 | 146.29667 | 33251 ft | 560 kts | 62° |
| 2026-04-30 13:00 | 32.62706 | 146.38039 | 33257 ft | 561 kts | 62° |
| 2026-04-30 13:01 | 32.66036 | 146.46374 | 33251 ft | 561 kts | 62° |
| 2026-04-30 13:01 | 32.69373 | 146.54749 | 33250 ft | 561 kts | 62° |
| 2026-04-30 13:02 | 32.72713 | 146.63153 | 33251 ft | 561 kts | 62° |
| 2026-04-30 13:02 | 32.76026 | 146.71507 | 33250 ft | 561 kts | 62° |
| 2026-04-30 13:03 | 32.79348 | 146.79904 | 33253 ft | 561 kts | 62° |
| 2026-04-30 13:03 | 32.82668 | 146.88317 | 33250 ft | 561 kts | 62° |
| 2026-04-30 13:04 | 32.85964 | 146.96691 | 33261 ft | 561 kts | 62° |
| 2026-04-30 13:04 | 32.89271 | 147.05112 | 33256 ft | 561 kts | 62° |
| 2026-04-30 13:05 | 32.92567 | 147.13527 | 33262 ft | 561 kts | 63° |
| 2026-04-30 13:06 | 32.97492 | 147.26137 | 33258 ft | 562 kts | 63° |
| 2026-04-30 13:06 | 33.00790 | 147.34608 | 33261 ft | 562 kts | 63° |
| 2026-04-30 13:07 | 33.04074 | 147.43065 | 33263 ft | 562 kts | 63° |
| 2026-04-30 13:07 | 33.07339 | 147.51492 | 33264 ft | 562 kts | 63° |
| 2026-04-30 13:08 | 33.10619 | 147.59980 | 33266 ft | 563 kts | 63° |
| 2026-04-30 13:08 | 33.13875 | 147.68426 | 33279 ft | 563 kts | 63° |
| 2026-04-30 13:09 | 33.17148 | 147.76939 | 33271 ft | 564 kts | 63° |
| 2026-04-30 13:09 | 33.20405 | 147.85429 | 33272 ft | 565 kts | 63° |
| 2026-04-30 13:10 | 33.23678 | 147.93985 | 33283 ft | 565 kts | 63° |
| 2026-04-30 13:10 | 33.26942 | 148.02539 | 33281 ft | 567 kts | 63° |
| 2026-04-30 13:11 | 33.30222 | 148.11155 | 33285 ft | 569 kts | 63° |
| 2026-04-30 13:11 | 33.33488 | 148.19756 | 33284 ft | 570 kts | 63° |
| 2026-04-30 13:12 | 33.36750 | 148.28372 | 33281 ft | 571 kts | 63° |
| 2026-04-30 13:12 | 33.40031 | 148.37057 | 33285 ft | 571 kts | 63° |
| 2026-04-30 13:13 | 33.44910 | 148.50019 | 33281 ft | 570 kts | 63° |
| 2026-04-30 13:14 | 33.49793 | 148.63041 | 33286 ft | 569 kts | 63° |
| 2026-04-30 13:14 | 33.54632 | 148.75994 | 33297 ft | 568 kts | 63° |
| 2026-04-30 13:15 | 33.59470 | 148.88995 | 33290 ft | 569 kts | 63° |
| 2026-04-30 13:16 | 33.62691 | 148.97680 | 33292 ft | 569 kts | 63° |
| 2026-04-30 13:16 | 33.65886 | 149.06318 | 33305 ft | 569 kts | 63° |
| 2026-04-30 13:17 | 33.70688 | 149.19341 | 33292 ft | 570 kts | 63° |
| 2026-04-30 13:18 | 33.75490 | 149.32418 | 33299 ft | 571 kts | 63° |
| 2026-04-30 13:18 | 33.80291 | 149.45543 | 33298 ft | 571 kts | 63° |
| 2026-04-30 13:19 | 33.83464 | 149.54250 | 33295 ft | 571 kts | 64° |
| 2026-04-30 13:19 | 33.86655 | 149.63026 | 33310 ft | 571 kts | 63° |
| 2026-04-30 13:20 | 33.89820 | 149.71756 | 33302 ft | 571 kts | 64° |
| 2026-04-30 13:20 | 33.92983 | 149.80504 | 33303 ft | 571 kts | 64° |
| 2026-04-30 13:21 | 33.96152 | 149.89294 | 33320 ft | 572 kts | 64° |
| 2026-04-30 13:22 | 34.01030 | 150.02446 | 33300 ft | 570 kts | 58° |
| 2026-04-30 13:22 | 34.06823 | 150.14909 | 33314 ft | 569 kts | 56° |
| 2026-04-30 13:23 | 34.12655 | 150.27401 | 33315 ft | 571 kts | 56° |
| 2026-04-30 13:24 | 34.20344 | 150.44180 | 33319 ft | 573 kts | 57° |
| 2026-04-30 13:25 | 34.28034 | 150.61046 | 33318 ft | 574 kts | 57° |
| 2026-04-30 13:26 | 34.37648 | 150.82229 | 33326 ft | 574 kts | 57° |
| 2026-04-30 13:28 | 34.47181 | 151.03362 | 33329 ft | 573 kts | 57° |
| 2026-04-30 13:28 | 34.52906 | 151.16118 | 33327 ft | 574 kts | 57° |
| 2026-04-30 13:29 | 34.60505 | 151.33120 | 33328 ft | 574 kts | 57° |
| 2026-04-30 13:31 | 34.70005 | 151.54494 | 33341 ft | 577 kts | 56° |
| 2026-04-30 13:32 | 34.79505 | 151.76005 | 33337 ft | 578 kts | 56° |
| 2026-04-30 13:33 | 34.87112 | 151.93327 | 33355 ft | 579 kts | 57° |
| 2026-04-30 13:34 | 34.92775 | 152.06279 | 33338 ft | 579 kts | 56° |
| 2026-04-30 13:35 | 35.00341 | 152.23660 | 33334 ft | 579 kts | 57° |
| 2026-04-30 13:36 | 35.07852 | 152.41006 | 33341 ft | 579 kts | 57° |
| 2026-04-30 13:36 | 35.13474 | 152.54047 | 33359 ft | 579 kts | 57° |
| 2026-04-30 13:37 | 35.19084 | 152.67107 | 33347 ft | 580 kts | 57° |
| 2026-04-30 13:38 | 35.24704 | 152.80246 | 33345 ft | 581 kts | 57° |
| 2026-04-30 13:39 | 35.32166 | 152.97772 | 33345 ft | 581 kts | 57° |
| 2026-04-30 13:40 | 35.37769 | 153.10990 | 33346 ft | 581 kts | 57° |
| 2026-04-30 13:40 | 35.41471 | 153.19753 | 33340 ft | 581 kts | 57° |
| 2026-04-30 13:41 | 35.45177 | 153.28547 | 33345 ft | 581 kts | 57° |
| 2026-04-30 13:41 | 35.48281 | 153.35931 | 33347 ft | 581 kts | 57° |
| 2026-04-30 13:42 | 35.51967 | 153.44721 | 33366 ft | 582 kts | 57° |
| 2026-04-30 13:42 | 35.57524 | 153.58019 | 33349 ft | 582 kts | 57° |
| 2026-04-30 13:43 | 35.61199 | 153.66841 | 33347 ft | 583 kts | 57° |
| 2026-04-30 13:43 | 35.64888 | 153.75722 | 33370 ft | 583 kts | 57° |
| 2026-04-30 13:44 | 35.68576 | 153.84622 | 33375 ft | 584 kts | 57° |
| 2026-04-30 13:44 | 35.72241 | 153.93490 | 33351 ft | 586 kts | 57° |
| 2026-04-30 13:45 | 35.77788 | 154.06961 | 33375 ft | 587 kts | 57° |
| 2026-04-30 13:46 | 35.81460 | 154.15910 | 33344 ft | 588 kts | 57° |
| 2026-04-30 13:46 | 35.85160 | 154.24949 | 33348 ft | 589 kts | 57° |
| 2026-04-30 13:47 | 35.88831 | 154.33945 | 33350 ft | 590 kts | 57° |
| 2026-04-30 13:47 | 35.92523 | 154.43017 | 33357 ft | 591 kts | 57° |
| 2026-04-30 13:48 | 35.96186 | 154.52042 | 33351 ft | 591 kts | 57° |
| 2026-04-30 13:48 | 35.99874 | 154.61153 | 33345 ft | 591 kts | 57° |
| 2026-04-30 13:49 | 36.03527 | 154.70207 | 33356 ft | 591 kts | 57° |
| 2026-04-30 13:49 | 36.07196 | 154.79322 | 33339 ft | 591 kts | 57° |
| 2026-04-30 13:50 | 36.10834 | 154.88385 | 33336 ft | 591 kts | 57° |
| 2026-04-30 13:50 | 36.16295 | 155.02040 | 33350 ft | 591 kts | 57° |
| 2026-04-30 13:51 | 36.19948 | 155.11205 | 33335 ft | 592 kts | 57° |
| 2026-04-30 13:51 | 36.23588 | 155.20366 | 33334 ft | 592 kts | 57° |
| 2026-04-30 13:52 | 36.27198 | 155.29474 | 33335 ft | 592 kts | 57° |
| 2026-04-30 13:52 | 36.30834 | 155.38678 | 33331 ft | 592 kts | 57° |
| 2026-04-30 13:53 | 36.34440 | 155.47828 | 33332 ft | 592 kts | 57° |
| 2026-04-30 13:53 | 36.38055 | 155.57031 | 33329 ft | 593 kts | 57° |
| 2026-04-30 13:54 | 36.41649 | 155.66205 | 33337 ft | 593 kts | 57° |
| 2026-04-30 13:54 | 36.45254 | 155.75432 | 33326 ft | 593 kts | 57° |
| 2026-04-30 13:55 | 36.48856 | 155.84680 | 33326 ft | 593 kts | 57° |
| 2026-04-30 13:55 | 36.52434 | 155.93893 | 33349 ft | 593 kts | 57° |
| 2026-04-30 13:56 | 36.56025 | 156.03168 | 33327 ft | 594 kts | 57° |
| 2026-04-30 13:56 | 36.59588 | 156.12395 | 33318 ft | 594 kts | 57° |
| 2026-04-30 13:57 | 36.63164 | 156.21685 | 33322 ft | 594 kts | 58° |
| 2026-04-30 13:57 | 36.66738 | 156.30996 | 33312 ft | 595 kts | 57° |
| 2026-04-30 13:58 | 36.72087 | 156.44980 | 33326 ft | 596 kts | 57° |
| 2026-04-30 13:59 | 36.75630 | 156.54279 | 33320 ft | 597 kts | 57° |
| 2026-04-30 13:59 | 36.79192 | 156.63658 | 33325 ft | 598 kts | 57° |
| 2026-04-30 14:00 | 36.82743 | 156.73033 | 33317 ft | 599 kts | 57° |
| 2026-04-30 14:00 | 36.88083 | 156.87188 | 33312 ft | 600 kts | 58° |
| 2026-04-30 14:01 | 36.91638 | 156.96645 | 33298 ft | 601 kts | 57° |
| 2026-04-30 14:01 | 36.95174 | 157.06081 | 33304 ft | 602 kts | 58° |
| 2026-04-30 14:02 | 36.98723 | 157.15581 | 33306 ft | 602 kts | 58° |
| 2026-04-30 14:02 | 37.02236 | 157.25015 | 33321 ft | 602 kts | 58° |
| 2026-04-30 14:03 | 37.05780 | 157.34556 | 33305 ft | 603 kts | 58° |
| 2026-04-30 14:03 | 37.09300 | 157.44067 | 33302 ft | 604 kts | 58° |
| 2026-04-30 14:04 | 37.12835 | 157.53647 | 33303 ft | 604 kts | 58° |
| 2026-04-30 14:04 | 37.16362 | 157.63233 | 33301 ft | 606 kts | 58° |
| 2026-04-30 14:05 | 37.19877 | 157.72817 | 33333 ft | 607 kts | 58° |
| 2026-04-30 14:05 | 37.23416 | 157.82495 | 33299 ft | 609 kts | 58° |
| 2026-04-30 14:06 | 37.28699 | 157.97005 | 33295 ft | 612 kts | 58° |
| 2026-04-30 14:07 | 37.33972 | 158.11557 | 33288 ft | 613 kts | 58° |
| 2026-04-30 14:08 | 37.39253 | 158.26204 | 33274 ft | 613 kts | 58° |
| 2026-04-30 14:08 | 37.44523 | 158.40887 | 33278 ft | 613 kts | 58° |
| 2026-04-30 14:09 | 37.48003 | 158.50622 | 33275 ft | 613 kts | 58° |
| 2026-04-30 14:10 | 37.53256 | 158.65376 | 33279 ft | 613 kts | 58° |
| 2026-04-30 14:10 | 37.56715 | 158.75131 | 33276 ft | 613 kts | 58° |
| 2026-04-30 14:11 | 37.60192 | 158.84970 | 33278 ft | 613 kts | 58° |
| 2026-04-30 14:11 | 37.63644 | 158.94769 | 33282 ft | 614 kts | 58° |
| 2026-04-30 14:12 | 37.67109 | 159.04635 | 33329 ft | 615 kts | 57° |
| 2026-04-30 14:12 | 37.70555 | 159.14481 | 33260 ft | 616 kts | 57° |
| 2026-04-30 14:13 | 37.74026 | 159.24434 | 33278 ft | 617 kts | 57° |
| 2026-04-30 14:13 | 37.77478 | 159.34367 | 33270 ft | 617 kts | 57° |
| 2026-04-30 14:14 | 37.80913 | 159.44283 | 33258 ft | 618 kts | 58° |
| 2026-04-30 14:14 | 37.84355 | 159.54250 | 33283 ft | 618 kts | 58° |
| 2026-04-30 14:15 | 37.87779 | 159.64200 | 33248 ft | 619 kts | 58° |
| 2026-04-30 14:15 | 37.91213 | 159.74214 | 33251 ft | 619 kts | 58° |
| 2026-04-30 14:16 | 37.94640 | 159.84244 | 33247 ft | 620 kts | 58° |
| 2026-04-30 14:16 | 37.98046 | 159.94241 | 33238 ft | 621 kts | 58° |
| 2026-04-30 14:17 | 38.01748 | 160.04090 | 33238 ft | 610 kts | 49° |
| 2026-04-30 14:17 | 38.06055 | 160.13247 | 33237 ft | 607 kts | 47° |
| 2026-04-30 14:18 | 38.10453 | 160.22448 | 33340 ft | 608 kts | 47° |
| 2026-04-30 14:18 | 38.16965 | 160.36360 | 33222 ft | 613 kts | 47° |
| 2026-04-30 14:19 | 38.23435 | 160.50408 | 33210 ft | 612 kts | 48° |
| 2026-04-30 14:20 | 38.27712 | 160.59711 | 33216 ft | 613 kts | 47° |
| 2026-04-30 14:20 | 38.34170 | 160.73779 | 33212 ft | 613 kts | 47° |
| 2026-04-30 14:21 | 38.38440 | 160.83116 | 33205 ft | 613 kts | 47° |
| 2026-04-30 14:22 | 38.44899 | 160.97292 | 33195 ft | 616 kts | 47° |
| 2026-04-30 14:22 | 38.51320 | 161.11452 | 33192 ft | 617 kts | 47° |
| 2026-04-30 14:23 | 38.59849 | 161.30374 | 33181 ft | 613 kts | 48° |
| 2026-04-30 14:24 | 38.66206 | 161.44543 | 33173 ft | 610 kts | 48° |
| 2026-04-30 14:25 | 38.74621 | 161.63380 | 33169 ft | 610 kts | 49° |
| 2026-04-30 14:26 | 38.80903 | 161.77519 | 33290 ft | 611 kts | 50° |
| 2026-04-30 14:26 | 38.85061 | 161.86945 | 33178 ft | 599 kts | 50° |
| 2026-04-30 14:27 | 38.87107 | 161.91593 | 33162 ft | 596 kts | 50° |
| 2026-04-30 14:27 | 38.91165 | 162.00796 | 33154 ft | 595 kts | 50° |
| 2026-04-30 14:28 | 38.97288 | 162.14717 | 33157 ft | 597 kts | 50° |
| 2026-04-30 14:28 | 39.01374 | 162.24055 | 33150 ft | 599 kts | 50° |
| 2026-04-30 14:29 | 39.08862 | 162.41256 | 33139 ft | 602 kts | 51° |
| 2026-04-30 14:31 | 39.19020 | 162.64758 | 33163 ft | 594 kts | 52° |
| 2026-04-30 14:31 | 39.25011 | 162.78690 | 33128 ft | 592 kts | 52° |
| 2026-04-30 14:32 | 39.30970 | 162.92596 | 33121 ft | 593 kts | 52° |
| 2026-04-30 14:33 | 39.35617 | 163.03487 | 33112 ft | 595 kts | 53° |
| 2026-04-30 14:33 | 39.40928 | 163.15994 | 33109 ft | 597 kts | 53° |
| 2026-04-30 14:34 | 39.44930 | 163.25452 | 33105 ft | 597 kts | 53° |
| 2026-04-30 14:34 | 39.48916 | 163.34896 | 33189 ft | 598 kts | 54° |
| 2026-04-30 14:35 | 39.52834 | 163.44227 | 33087 ft | 587 kts | 54° |
| 2026-04-30 14:35 | 39.54776 | 163.48862 | 33104 ft | 585 kts | 54° |
| 2026-04-30 14:36 | 39.58681 | 163.58176 | 33085 ft | 587 kts | 54° |
| 2026-04-30 14:36 | 39.62588 | 163.67519 | 33094 ft | 589 kts | 54° |
| 2026-04-30 14:37 | 39.66473 | 163.76848 | 33086 ft | 590 kts | 55° |
| 2026-04-30 14:37 | 39.70371 | 163.86245 | 33073 ft | 591 kts | 55° |
| 2026-04-30 14:38 | 39.74269 | 163.95672 | 33067 ft | 591 kts | 55° |
| 2026-04-30 14:38 | 39.78136 | 164.05049 | 33082 ft | 591 kts | 55° |
| 2026-04-30 14:39 | 39.82018 | 164.14492 | 33085 ft | 591 kts | 55° |
| 2026-04-30 14:39 | 39.85860 | 164.23867 | 33056 ft | 589 kts | 56° |
| 2026-04-30 14:40 | 39.91576 | 164.37875 | 33058 ft | 582 kts | 56° |
| 2026-04-30 14:40 | 39.95368 | 164.47195 | 33048 ft | 580 kts | 56° |
| 2026-04-30 14:41 | 39.99143 | 164.56499 | 33048 ft | 579 kts | 56° |
| 2026-04-30 14:41 | 40.02894 | 164.65775 | 33040 ft | 581 kts | 56° |
| 2026-04-30 14:42 | 40.06672 | 164.75143 | 33050 ft | 583 kts | 57° |
| 2026-04-30 14:42 | 40.10447 | 164.84540 | 33030 ft | 585 kts | 57° |
| 2026-04-30 14:43 | 40.14222 | 164.93968 | 33022 ft | 585 kts | 57° |
| 2026-04-30 14:43 | 40.17968 | 165.03356 | 33021 ft | 585 kts | 57° |
| 2026-04-30 14:44 | 40.21737 | 165.12824 | 33009 ft | 586 kts | 57° |
| 2026-04-30 14:44 | 40.25501 | 165.22313 | 33014 ft | 586 kts | 57° |
| 2026-04-30 14:45 | 40.29224 | 165.31728 | 33016 ft | 586 kts | 57° |
| 2026-04-30 14:45 | 40.32986 | 165.41265 | 33179 ft | 589 kts | 57° |
| 2026-04-30 14:46 | 40.34867 | 165.46048 | 33485 ft | 588 kts | 57° |
| 2026-04-30 14:46 | 40.36720 | 165.50771 | 33791 ft | 587 kts | 57° |
| 2026-04-30 14:46 | 40.38587 | 165.55538 | 34091 ft | 585 kts | 57° |
| 2026-04-30 14:46 | 40.40452 | 165.60304 | 34333 ft | 585 kts | 57° |
| 2026-04-30 14:47 | 40.42308 | 165.65054 | 34527 ft | 585 kts | 57° |
| 2026-04-30 14:47 | 40.44167 | 165.69816 | 34730 ft | 585 kts | 57° |
| 2026-04-30 14:47 | 40.46001 | 165.74522 | 34883 ft | 585 kts | 57° |
| 2026-04-30 14:47 | 40.47858 | 165.79296 | 34975 ft | 585 kts | 58° |
| 2026-04-30 14:48 | 40.51541 | 165.88792 | 34972 ft | 580 kts | 58° |
| 2026-04-30 14:48 | 40.55175 | 165.98194 | 34975 ft | 578 kts | 58° |
| 2026-04-30 14:49 | 40.58817 | 166.07639 | 34970 ft | 577 kts | 58° |
| 2026-04-30 14:49 | 40.62431 | 166.17038 | 34967 ft | 578 kts | 58° |
| 2026-04-30 14:50 | 40.67877 | 166.31263 | 34968 ft | 581 kts | 58° |
| 2026-04-30 14:51 | 40.73320 | 166.45556 | 34957 ft | 583 kts | 59° |
| 2026-04-30 14:52 | 40.78777 | 166.59953 | 34986 ft | 585 kts | 59° |
| 2026-04-30 14:52 | 40.84190 | 166.74311 | 34928 ft | 583 kts | 59° |
| 2026-04-30 14:53 | 40.89588 | 166.88697 | 34937 ft | 579 kts | 59° |
| 2026-04-30 14:54 | 40.96692 | 167.07731 | 34920 ft | 578 kts | 60° |
| 2026-04-30 14:55 | 41.02003 | 167.22045 | 34915 ft | 579 kts | 60° |
| 2026-04-30 14:56 | 41.09086 | 167.41243 | 34943 ft | 582 kts | 60° |
| 2026-04-30 14:57 | 41.14408 | 167.55757 | 34900 ft | 583 kts | 60° |
| 2026-04-30 14:58 | 41.21457 | 167.75096 | 34885 ft | 582 kts | 60° |
| 2026-04-30 14:58 | 41.26728 | 167.89642 | 34882 ft | 581 kts | 61° |
| 2026-04-30 15:00 | 41.35455 | 168.13884 | 34871 ft | 582 kts | 61° |
| 2026-04-30 15:01 | 41.42406 | 168.33344 | 34866 ft | 583 kts | 62° |
| 2026-04-30 15:01 | 41.47619 | 168.48027 | 34848 ft | 583 kts | 62° |
| 2026-04-30 15:02 | 41.51057 | 168.57752 | 34850 ft | 582 kts | 62° |
| 2026-04-30 15:03 | 41.59658 | 168.82226 | 34838 ft | 582 kts | 62° |
| 2026-04-30 15:04 | 41.68212 | 169.06784 | 34855 ft | 584 kts | 62° |
| 2026-04-30 15:06 | 41.76713 | 169.31407 | 34811 ft | 582 kts | 63° |
| 2026-04-30 15:07 | 41.83458 | 169.51099 | 34800 ft | 581 kts | 63° |
| 2026-04-30 15:08 | 41.90160 | 169.70803 | 34801 ft | 582 kts | 63° |
| 2026-04-30 15:09 | 41.98518 | 169.95578 | 34787 ft | 584 kts | 63° |
| 2026-04-30 15:10 | 42.05429 | 170.15309 | 34770 ft | 582 kts | 61° |
| 2026-04-30 15:11 | 42.15998 | 170.44725 | 34759 ft | 581 kts | 62° |
| 2026-04-30 15:13 | 42.24673 | 170.69324 | 34768 ft | 583 kts | 63° |
| 2026-04-30 15:14 | 42.36765 | 171.03941 | 34730 ft | 582 kts | 63° |
| 2026-04-30 15:17 | 42.52181 | 171.48715 | 34726 ft | 584 kts | 63° |
| 2026-04-30 15:19 | 42.65720 | 171.88647 | 34682 ft | 582 kts | 64° |
| 2026-04-30 17:39 | 46.63813 | -155.24854 | 35019 ft | 586 kts | 96° |
| 2026-04-30 17:42 | 46.57961 | -154.66403 | 35034 ft | 582 kts | 96° |
| 2026-04-30 17:43 | 46.54937 | -154.37354 | 35060 ft | 582 kts | 96° |
| 2026-04-30 17:44 | 46.51420 | -154.04452 | 35078 ft | 581 kts | 96° |
| 2026-04-30 17:47 | 46.45652 | -153.52419 | 35092 ft | 577 kts | 97° |
| 2026-04-30 17:48 | 46.41052 | -153.12424 | 35121 ft | 573 kts | 97° |
| 2026-04-30 17:50 | 46.35646 | -152.66979 | 35158 ft | 573 kts | 97° |
| 2026-04-30 17:52 | 46.31478 | -152.33005 | 35171 ft | 571 kts | 97° |
| 2026-04-30 17:54 | 46.25072 | -151.82396 | 35203 ft | 566 kts | 97° |
| 2026-04-30 17:56 | 46.19230 | -151.37797 | 35234 ft | 564 kts | 98° |
| 2026-04-30 17:58 | 46.14755 | -151.04563 | 35250 ft | 562 kts | 98° |
| 2026-04-30 18:00 | 46.08673 | -150.60582 | 35261 ft | 557 kts | 99° |
| 2026-04-30 18:01 | 46.04814 | -150.33327 | 35276 ft | 556 kts | 99° |
| 2026-04-30 18:02 | 46.00067 | -150.00659 | 35297 ft | 557 kts | 102° |
| 2026-04-30 18:04 | 45.92425 | -149.69024 | 35315 ft | 557 kts | 108° |
| 2026-04-30 18:06 | 45.82076 | -149.27320 | 35331 ft | 552 kts | 108° |
| 2026-04-30 18:08 | 45.72987 | -148.91324 | 35345 ft | 548 kts | 109° |
| 2026-04-30 18:10 | 45.62501 | -148.50475 | 35366 ft | 545 kts | 109° |
| 2026-04-30 18:11 | 45.53291 | -148.15178 | 35386 ft | 541 kts | 109° |
| 2026-04-30 18:13 | 45.46676 | -147.90150 | 35398 ft | 538 kts | 109° |
| 2026-04-30 18:14 | 45.40047 | -147.65329 | 35408 ft | 534 kts | 110° |
| 2026-04-30 18:15 | 45.32093 | -147.35889 | 35416 ft | 529 kts | 110° |
| 2026-04-30 18:16 | 45.26798 | -147.16491 | 35412 ft | 527 kts | 111° |
| 2026-04-30 18:17 | 45.24134 | -147.06787 | 35421 ft | 526 kts | 111° |
| 2026-04-30 18:18 | 45.20136 | -146.92299 | 35425 ft | 527 kts | 111° |
| 2026-04-30 18:18 | 45.17453 | -146.82626 | 35424 ft | 527 kts | 111° |
| 2026-04-30 18:19 | 45.14755 | -146.72939 | 35428 ft | 528 kts | 111° |
| 2026-04-30 18:19 | 45.12063 | -146.63307 | 35435 ft | 528 kts | 111° |
| 2026-04-30 18:20 | 45.09350 | -146.53641 | 35430 ft | 527 kts | 111° |
| 2026-04-30 18:20 | 45.06631 | -146.43991 | 35431 ft | 526 kts | 112° |
| 2026-04-30 18:21 | 45.03928 | -146.34437 | 35432 ft | 525 kts | 112° |
| 2026-04-30 18:21 | 45.01207 | -146.24854 | 35440 ft | 523 kts | 112° |
| 2026-04-30 18:22 | 44.98498 | -146.15350 | 35438 ft | 522 kts | 112° |
| 2026-04-30 18:22 | 44.94414 | -146.01093 | 35436 ft | 521 kts | 112° |
| 2026-04-30 18:23 | 44.91683 | -145.91608 | 35446 ft | 521 kts | 112° |
| 2026-04-30 18:23 | 44.88959 | -145.82182 | 35444 ft | 520 kts | 112° |
| 2026-04-30 18:24 | 44.84843 | -145.68001 | 35444 ft | 520 kts | 113° |
| 2026-04-30 18:25 | 44.82103 | -145.58609 | 35449 ft | 520 kts | 113° |
| 2026-04-30 18:25 | 44.77955 | -145.44456 | 35450 ft | 520 kts | 113° |
| 2026-04-30 18:26 | 44.73807 | -145.30379 | 35455 ft | 520 kts | 113° |
| 2026-04-30 18:27 | 44.69635 | -145.16305 | 35452 ft | 520 kts | 113° |
| 2026-04-30 18:28 | 44.65452 | -145.02269 | 35455 ft | 520 kts | 113° |
| 2026-04-30 18:28 | 44.61236 | -144.88201 | 35455 ft | 520 kts | 113° |
| 2026-04-30 18:29 | 44.56089 | -144.71129 | 35465 ft | 521 kts | 114° |
| 2026-04-30 18:30 | 44.53240 | -144.61733 | 35879 ft | 522 kts | 114° |
| 2026-04-30 18:30 | 44.50412 | -144.52435 | 36463 ft | 520 kts | 114° |
| 2026-04-30 18:31 | 44.48990 | -144.47771 | 36719 ft | 520 kts | 114° |
| 2026-04-30 18:31 | 44.46133 | -144.38432 | 37158 ft | 521 kts | 114° |
| 2026-04-30 18:32 | 44.43278 | -144.29134 | 37416 ft | 523 kts | 114° |
| 2026-04-30 18:32 | 44.41838 | -144.24456 | 37453 ft | 523 kts | 114° |
| 2026-04-30 18:33 | 44.37522 | -144.10482 | 37451 ft | 519 kts | 114° |
| 2026-04-30 18:33 | 44.33236 | -143.96685 | 37454 ft | 517 kts | 114° |
| 2026-04-30 18:34 | 44.28915 | -143.82850 | 37460 ft | 517 kts | 114° |
| 2026-04-30 18:35 | 44.26046 | -143.73703 | 37454 ft | 517 kts | 114° |
| 2026-04-30 18:35 | 44.23149 | -143.64498 | 37452 ft | 518 kts | 114° |
| 2026-04-30 18:36 | 44.18773 | -143.50657 | 37451 ft | 520 kts | 115° |
| 2026-04-30 18:37 | 44.14394 | -143.36878 | 37456 ft | 520 kts | 115° |
| 2026-04-30 18:37 | 44.11445 | -143.27642 | 37450 ft | 520 kts | 115° |
| 2026-04-30 18:38 | 44.08514 | -143.18491 | 37451 ft | 520 kts | 115° |
| 2026-04-30 18:38 | 44.05560 | -143.09303 | 37444 ft | 519 kts | 115° |
| 2026-04-30 18:39 | 44.02610 | -143.00158 | 37443 ft | 517 kts | 115° |
| 2026-04-30 18:39 | 43.99679 | -142.91103 | 37441 ft | 516 kts | 115° |
| 2026-04-30 18:40 | 43.96728 | -142.82019 | 37441 ft | 515 kts | 115° |
| 2026-04-30 18:40 | 43.93791 | -142.73008 | 37443 ft | 514 kts | 116° |
| 2026-04-30 18:41 | 43.90830 | -142.63953 | 37440 ft | 513 kts | 116° |
| 2026-04-30 18:41 | 43.87885 | -142.54981 | 37440 ft | 513 kts | 116° |
| 2026-04-30 18:42 | 43.84912 | -142.45952 | 37429 ft | 513 kts | 116° |
| 2026-04-30 18:42 | 43.80456 | -142.32475 | 37433 ft | 513 kts | 116° |
| 2026-04-30 18:45 | 43.63986 | -141.83245 | 37429 ft | 512 kts | 117° |
| 2026-04-30 18:46 | 43.60971 | -141.74330 | 37426 ft | 512 kts | 117° |
| 2026-04-30 18:46 | 43.57951 | -141.65428 | 37426 ft | 511 kts | 117° |
| 2026-04-30 18:47 | 43.54939 | -141.56579 | 37409 ft | 511 kts | 118° |
| 2026-04-30 18:47 | 43.51916 | -141.47728 | 37416 ft | 510 kts | 118° |
| 2026-04-30 18:48 | 43.48880 | -141.38866 | 37418 ft | 510 kts | 118° |
| 2026-04-30 18:48 | 43.45863 | -141.30091 | 37412 ft | 510 kts | 118° |
| 2026-04-30 18:49 | 43.42824 | -141.21278 | 37407 ft | 509 kts | 119° |
| 2026-04-30 18:49 | 43.39772 | -141.12456 | 37414 ft | 509 kts | 119° |
| 2026-04-30 18:50 | 43.36739 | -141.03718 | 37410 ft | 509 kts | 119° |
| 2026-04-30 18:50 | 43.33675 | -140.94918 | 37402 ft | 509 kts | 120° |
| 2026-04-30 18:51 | 43.30612 | -140.86150 | 37407 ft | 509 kts | 120° |
| 2026-04-30 18:51 | 43.27558 | -140.77436 | 37412 ft | 509 kts | 120° |
| 2026-04-30 18:52 | 43.24476 | -140.68667 | 37396 ft | 509 kts | 120° |
| 2026-04-30 18:52 | 43.21396 | -140.59934 | 37402 ft | 509 kts | 120° |
| 2026-04-30 18:53 | 43.18303 | -140.51192 | 37405 ft | 509 kts | 120° |
| 2026-04-30 18:53 | 43.15226 | -140.42522 | 37403 ft | 509 kts | 120° |
| 2026-04-30 18:54 | 43.12122 | -140.33800 | 37395 ft | 508 kts | 121° |
| 2026-04-30 18:54 | 43.09036 | -140.25157 | 37396 ft | 507 kts | 121° |
| 2026-04-30 18:55 | 43.05922 | -140.16463 | 37392 ft | 507 kts | 121° |
| 2026-04-30 18:55 | 43.01270 | -140.03520 | 37383 ft | 506 kts | 121° |
| 2026-04-30 18:56 | 42.97435 | -139.89960 | 37378 ft | 512 kts | 112° |
| 2026-04-30 18:57 | 42.94124 | -139.76145 | 37379 ft | 511 kts | 113° |
| 2026-04-30 18:57 | 42.91871 | -139.66940 | 37378 ft | 510 kts | 114° |
| 2026-04-30 18:58 | 42.88463 | -139.53224 | 37374 ft | 509 kts | 114° |
| 2026-04-30 18:59 | 42.85043 | -139.39549 | 37363 ft | 509 kts | 114° |
| 2026-04-30 19:00 | 42.80458 | -139.21327 | 37364 ft | 509 kts | 114° |
| 2026-04-30 19:01 | 42.75825 | -139.03050 | 37361 ft | 510 kts | 115° |
| 2026-04-30 19:02 | 42.72337 | -138.89387 | 37357 ft | 511 kts | 115° |
| 2026-04-30 19:03 | 42.67653 | -138.71153 | 37348 ft | 511 kts | 115° |
| 2026-04-30 19:04 | 42.62946 | -138.52977 | 37345 ft | 511 kts | 115° |
| 2026-04-30 19:05 | 42.58199 | -138.34782 | 37331 ft | 510 kts | 116° |
| 2026-04-30 19:06 | 42.53447 | -138.16705 | 37313 ft | 509 kts | 116° |
| 2026-04-30 19:06 | 42.49860 | -138.03149 | 37323 ft | 508 kts | 116° |
| 2026-04-30 19:07 | 42.46271 | -137.89665 | 37323 ft | 509 kts | 116° |
| 2026-04-30 19:08 | 42.41440 | -137.71624 | 37326 ft | 509 kts | 116° |
| 2026-04-30 19:09 | 42.37814 | -137.58175 | 37306 ft | 509 kts | 116° |
| 2026-04-30 19:09 | 42.35370 | -137.49147 | 37320 ft | 509 kts | 116° |
| 2026-04-30 19:10 | 42.30481 | -137.31193 | 37295 ft | 509 kts | 116° |
| 2026-04-30 19:11 | 42.26802 | -137.17764 | 37297 ft | 508 kts | 117° |
| 2026-04-30 19:12 | 42.24348 | -137.08848 | 37304 ft | 508 kts | 117° |
| 2026-04-30 19:12 | 42.21869 | -136.99876 | 37303 ft | 508 kts | 117° |
| 2026-04-30 19:13 | 42.16928 | -136.82087 | 37292 ft | 507 kts | 117° |
| 2026-04-30 19:14 | 42.14433 | -136.73150 | 37302 ft | 508 kts | 117° |
| 2026-04-30 19:14 | 42.11951 | -136.64296 | 37306 ft | 508 kts | 117° |
| 2026-04-30 19:15 | 42.09441 | -136.55370 | 37284 ft | 508 kts | 117° |
| 2026-04-30 19:15 | 42.05678 | -136.42044 | 37300 ft | 509 kts | 117° |
| 2026-04-30 19:16 | 42.03575 | -136.34633 | 37301 ft | 509 kts | 117° |
| 2026-04-30 19:17 | 41.99765 | -136.21251 | 37306 ft | 510 kts | 117° |
| 2026-04-30 19:17 | 41.95957 | -136.07949 | 37309 ft | 510 kts | 117° |
| 2026-04-30 19:18 | 41.92105 | -135.94565 | 37306 ft | 510 kts | 117° |
| 2026-04-30 19:19 | 41.89553 | -135.85733 | 37325 ft | 510 kts | 117° |
| 2026-04-30 19:19 | 41.85684 | -135.72406 | 37321 ft | 511 kts | 117° |
| 2026-04-30 19:20 | 41.83090 | -135.63507 | 37313 ft | 511 kts | 117° |
| 2026-04-30 19:21 | 41.79201 | -135.50227 | 37338 ft | 512 kts | 117° |
| 2026-04-30 19:22 | 41.73981 | -135.32504 | 37325 ft | 511 kts | 117° |
| 2026-04-30 19:23 | 41.66099 | -135.05973 | 37319 ft | 511 kts | 117° |
| 2026-04-30 19:24 | 41.62148 | -134.92774 | 37341 ft | 511 kts | 118° |
| 2026-04-30 19:25 | 41.55499 | -134.70715 | 37353 ft | 512 kts | 118° |
| 2026-04-30 19:26 | 41.50154 | -134.53111 | 37347 ft | 513 kts | 118° |
| 2026-04-30 19:27 | 41.46108 | -134.39863 | 37350 ft | 513 kts | 118° |
| 2026-04-30 19:28 | 41.42067 | -134.26697 | 37360 ft | 513 kts | 118° |
| 2026-04-30 19:29 | 41.36631 | -134.09092 | 37354 ft | 512 kts | 118° |
| 2026-04-30 19:30 | 41.31191 | -133.91588 | 37363 ft | 513 kts | 118° |
| 2026-04-30 19:31 | 41.25719 | -133.74096 | 37356 ft | 514 kts | 118° |
| 2026-04-30 19:31 | 41.21593 | -133.60980 | 37358 ft | 514 kts | 118° |
| 2026-04-30 19:32 | 41.18810 | -133.52171 | 37371 ft | 514 kts | 118° |
| 2026-04-30 19:32 | 41.16040 | -133.43429 | 37370 ft | 515 kts | 118° |
| 2026-04-30 19:33 | 41.13265 | -133.34702 | 37362 ft | 516 kts | 118° |
| 2026-04-30 19:33 | 41.10462 | -133.25914 | 37364 ft | 516 kts | 118° |
| 2026-04-30 19:34 | 41.07656 | -133.17144 | 37369 ft | 516 kts | 118° |
| 2026-04-30 19:35 | 41.03450 | -133.04051 | 37373 ft | 516 kts | 118° |
| 2026-04-30 19:35 | 41.00625 | -132.95292 | 37369 ft | 517 kts | 118° |
| 2026-04-30 19:36 | 40.97802 | -132.86568 | 37370 ft | 517 kts | 118° |
| 2026-04-30 19:36 | 40.93550 | -132.73480 | 37355 ft | 517 kts | 118° |
| 2026-04-30 19:37 | 40.90699 | -132.64741 | 37368 ft | 517 kts | 118° |
| 2026-04-30 19:37 | 40.87835 | -132.55986 | 37375 ft | 517 kts | 118° |
| 2026-04-30 19:38 | 40.84985 | -132.47305 | 37376 ft | 517 kts | 118° |
| 2026-04-30 19:38 | 40.82108 | -132.38569 | 37359 ft | 517 kts | 118° |
| 2026-04-30 19:39 | 40.79242 | -132.29893 | 37381 ft | 517 kts | 118° |
| 2026-04-30 19:39 | 40.76366 | -132.21214 | 37374 ft | 518 kts | 118° |
| 2026-04-30 19:40 | 40.73470 | -132.12501 | 37361 ft | 518 kts | 118° |
| 2026-04-30 19:40 | 40.70585 | -132.03848 | 37365 ft | 518 kts | 118° |
| 2026-04-30 19:41 | 40.67673 | -131.95140 | 37381 ft | 518 kts | 118° |
| 2026-04-30 19:41 | 40.64749 | -131.86429 | 37364 ft | 518 kts | 118° |
| 2026-04-30 19:42 | 40.61839 | -131.77782 | 37370 ft | 518 kts | 118° |
| 2026-04-30 19:42 | 40.58905 | -131.69091 | 37365 ft | 519 kts | 118° |
| 2026-04-30 19:43 | 40.55982 | -131.60460 | 37364 ft | 519 kts | 118° |
| 2026-04-30 19:44 | 40.51562 | -131.47457 | 37362 ft | 519 kts | 118° |
| 2026-04-30 19:44 | 40.48608 | -131.38799 | 37365 ft | 519 kts | 118° |
| 2026-04-30 19:45 | 40.45647 | -131.30150 | 37348 ft | 518 kts | 118° |
| 2026-04-30 19:45 | 40.42698 | -131.21562 | 37356 ft | 518 kts | 118° |
| 2026-04-30 19:46 | 40.39720 | -131.12916 | 37363 ft | 519 kts | 118° |
| 2026-04-30 19:46 | 40.36738 | -131.04284 | 37353 ft | 519 kts | 118° |
| 2026-04-30 19:47 | 40.33758 | -130.95683 | 37350 ft | 520 kts | 118° |
| 2026-04-30 19:47 | 40.30753 | -130.87035 | 37351 ft | 520 kts | 118° |
| 2026-04-30 19:48 | 40.27760 | -130.78450 | 37334 ft | 521 kts | 118° |
| 2026-04-30 19:48 | 40.24735 | -130.69797 | 37342 ft | 521 kts | 118° |
| 2026-04-30 19:49 | 40.21729 | -130.61227 | 37351 ft | 521 kts | 118° |
| 2026-04-30 19:49 | 40.17175 | -130.48288 | 37337 ft | 522 kts | 118° |
| 2026-04-30 19:50 | 40.14128 | -130.39664 | 37343 ft | 522 kts | 118° |
| 2026-04-30 19:50 | 40.11094 | -130.31103 | 37336 ft | 522 kts | 118° |
| 2026-04-30 19:51 | 40.08022 | -130.22459 | 37319 ft | 522 kts | 118° |
| 2026-04-30 19:51 | 40.04978 | -130.13916 | 37334 ft | 522 kts | 118° |
| 2026-04-30 19:52 | 40.01897 | -130.05296 | 37334 ft | 523 kts | 118° |
| 2026-04-30 19:52 | 39.98612 | -129.96913 | 37318 ft | 520 kts | 125° |
| 2026-04-30 19:53 | 39.94713 | -129.88979 | 37327 ft | 519 kts | 126° |
| 2026-04-30 19:53 | 39.90761 | -129.81057 | 37323 ft | 520 kts | 126° |
| 2026-04-30 19:54 | 39.86862 | -129.73176 | 37310 ft | 520 kts | 126° |
| 2026-04-30 19:54 | 39.82941 | -129.65208 | 37310 ft | 521 kts | 126° |
| 2026-04-30 19:55 | 39.79052 | -129.57308 | 37310 ft | 521 kts | 126° |
| 2026-04-30 19:55 | 39.75127 | -129.49363 | 37302 ft | 522 kts | 126° |
| 2026-04-30 19:56 | 39.71184 | -129.41406 | 37309 ft | 522 kts | 126° |
| 2026-04-30 19:56 | 39.67272 | -129.33532 | 37306 ft | 522 kts | 126° |
| 2026-04-30 19:57 | 39.63329 | -129.25617 | 37293 ft | 522 kts | 126° |
| 2026-04-30 19:57 | 39.59392 | -129.17731 | 37302 ft | 522 kts | 126° |
| 2026-04-30 19:58 | 39.55430 | -129.09817 | 37296 ft | 522 kts | 126° |
| 2026-04-30 19:58 | 39.51464 | -129.01913 | 37293 ft | 522 kts | 126° |
| 2026-04-30 19:59 | 39.47511 | -128.94056 | 37292 ft | 522 kts | 126° |
| 2026-04-30 20:00 | 39.41541 | -128.82226 | 37283 ft | 522 kts | 126° |
| 2026-04-30 20:00 | 39.37581 | -128.74401 | 37286 ft | 522 kts | 126° |
| 2026-04-30 20:01 | 39.31610 | -128.62642 | 37271 ft | 523 kts | 126° |
| 2026-04-30 20:01 | 39.27593 | -128.54755 | 37281 ft | 523 kts | 126° |
| 2026-04-30 20:02 | 39.21599 | -128.43021 | 37275 ft | 524 kts | 126° |
| 2026-04-30 20:03 | 39.15577 | -128.31279 | 37272 ft | 524 kts | 126° |
| 2026-04-30 20:03 | 39.11540 | -128.23428 | 37264 ft | 525 kts | 126° |
| 2026-04-30 20:04 | 39.08177 | -128.16905 | 37257 ft | 525 kts | 126° |
| 2026-04-30 20:05 | 39.02106 | -128.05160 | 37264 ft | 525 kts | 126° |
| 2026-04-30 20:05 | 38.96040 | -127.93469 | 37253 ft | 526 kts | 126° |
| 2026-04-30 20:06 | 38.91970 | -127.85648 | 37254 ft | 526 kts | 126° |
| 2026-04-30 20:06 | 38.87891 | -127.77831 | 37239 ft | 526 kts | 126° |
| 2026-04-30 20:07 | 38.83833 | -127.70070 | 37247 ft | 527 kts | 126° |
| 2026-04-30 20:08 | 38.77688 | -127.58355 | 37242 ft | 527 kts | 126° |
| 2026-04-30 20:08 | 38.73582 | -127.50551 | 37242 ft | 527 kts | 126° |
| 2026-04-30 20:09 | 38.69490 | -127.42791 | 37235 ft | 528 kts | 126° |
| 2026-04-30 20:09 | 38.63327 | -127.31140 | 37224 ft | 528 kts | 126° |
| 2026-04-30 20:10 | 38.57121 | -127.19449 | 37226 ft | 528 kts | 126° |
| 2026-04-30 20:11 | 38.50937 | -127.07842 | 37221 ft | 528 kts | 126° |
| 2026-04-30 20:11 | 38.46790 | -127.00081 | 37214 ft | 528 kts | 126° |
| 2026-04-30 20:12 | 38.40588 | -126.88510 | 37206 ft | 528 kts | 126° |
| 2026-04-30 20:13 | 38.36426 | -126.80768 | 37207 ft | 528 kts | 126° |
| 2026-04-30 20:13 | 38.32260 | -126.73036 | 37203 ft | 528 kts | 126° |
| 2026-04-30 20:14 | 38.28115 | -126.65362 | 37201 ft | 528 kts | 126° |
| 2026-04-30 20:14 | 38.23942 | -126.57653 | 37199 ft | 529 kts | 126° |
| 2026-04-30 20:15 | 38.19751 | -126.49929 | 37190 ft | 528 kts | 126° |
| 2026-04-30 20:15 | 38.15594 | -126.42286 | 37190 ft | 529 kts | 126° |
| 2026-04-30 20:16 | 38.11415 | -126.34621 | 37190 ft | 529 kts | 126° |
| 2026-04-30 20:16 | 38.07209 | -126.26924 | 37186 ft | 529 kts | 126° |
| 2026-04-30 20:17 | 38.03005 | -126.19249 | 37180 ft | 529 kts | 126° |
| 2026-04-30 20:17 | 37.98817 | -126.11619 | 37180 ft | 529 kts | 126° |
| 2026-04-30 20:18 | 37.94602 | -126.03958 | 37175 ft | 529 kts | 126° |
| 2026-04-30 20:18 | 37.90379 | -125.96300 | 37175 ft | 529 kts | 127° |
| 2026-04-30 20:19 | 37.86166 | -125.88677 | 37162 ft | 529 kts | 127° |
| 2026-04-30 20:19 | 37.82172 | -125.80851 | 37159 ft | 530 kts | 118° |
| 2026-04-30 20:20 | 37.78959 | -125.72499 | 37164 ft | 530 kts | 116° |
| 2026-04-30 20:20 | 37.75778 | -125.64077 | 37148 ft | 530 kts | 116° |
| 2026-04-30 20:21 | 37.72575 | -125.55722 | 37162 ft | 530 kts | 116° |
| 2026-04-30 20:21 | 37.69326 | -125.47352 | 37156 ft | 530 kts | 116° |
| 2026-04-30 20:22 | 37.66088 | -125.39048 | 37147 ft | 530 kts | 117° |
| 2026-04-30 20:22 | 37.62822 | -125.30690 | 37158 ft | 529 kts | 117° |
| 2026-04-30 20:23 | 37.59576 | -125.22398 | 37167 ft | 530 kts | 117° |
| 2026-04-30 20:23 | 37.56299 | -125.14048 | 37141 ft | 530 kts | 117° |
| 2026-04-30 20:24 | 37.53025 | -125.05727 | 37137 ft | 529 kts | 117° |
| 2026-04-30 20:24 | 37.49759 | -124.97450 | 37149 ft | 529 kts | 117° |
| 2026-04-30 20:25 | 37.44851 | -124.85052 | 37151 ft | 529 kts | 117° |
| 2026-04-30 20:26 | 37.39902 | -124.72598 | 37133 ft | 529 kts | 117° |
| 2026-04-30 20:26 | 37.34971 | -124.60241 | 37124 ft | 529 kts | 117° |
| 2026-04-30 20:27 | 37.28363 | -124.43754 | 37118 ft | 529 kts | 117° |
| 2026-04-30 20:28 | 37.21722 | -124.27274 | 37114 ft | 529 kts | 117° |
| 2026-04-30 20:30 | 37.13377 | -124.06681 | 37106 ft | 529 kts | 117° |
| 2026-04-30 20:31 | 37.03359 | -123.82135 | 37098 ft | 528 kts | 117° |
| 2026-04-30 20:32 | 36.94968 | -123.61714 | 37089 ft | 527 kts | 117° |
| 2026-04-30 20:33 | 36.90265 | -123.49324 | 37101 ft | 527 kts | 113° |
| 2026-04-30 20:34 | 36.85943 | -123.36676 | 37082 ft | 527 kts | 112° |
| 2026-04-30 20:35 | 36.81598 | -123.24115 | 37077 ft | 527 kts | 113° |
| 2026-04-30 20:35 | 36.77213 | -123.11579 | 37088 ft | 526 kts | 113° |
| 2026-04-30 20:36 | 36.74277 | -123.03210 | 37095 ft | 526 kts | 113° |
| 2026-04-30 20:37 | 36.69865 | -122.90673 | 37085 ft | 526 kts | 113° |
| 2026-04-30 20:37 | 36.66931 | -122.82362 | 37072 ft | 526 kts | 113° |
| 2026-04-30 20:38 | 36.63974 | -122.74010 | 37073 ft | 526 kts | 113° |
| 2026-04-30 20:38 | 36.61016 | -122.65675 | 37087 ft | 525 kts | 113° |
| 2026-04-30 20:39 | 36.56584 | -122.53234 | 37072 ft | 526 kts | 113° |
| 2026-04-30 20:40 | 36.52137 | -122.40801 | 37080 ft | 525 kts | 113° |
| 2026-04-30 20:40 | 36.49154 | -122.32488 | 37094 ft | 525 kts | 113° |
| 2026-04-30 20:41 | 36.44689 | -122.20090 | 37078 ft | 525 kts | 113° |
| 2026-04-30 20:41 | 36.41691 | -122.11789 | 37077 ft | 525 kts | 113° |
| 2026-04-30 20:42 | 36.38701 | -122.03537 | 37075 ft | 525 kts | 113° |
| 2026-04-30 20:43 | 36.34202 | -121.91158 | 37065 ft | 525 kts | 113° |
| 2026-04-30 20:43 | 36.31183 | -121.82880 | 37056 ft | 525 kts | 113° |
| 2026-04-30 20:44 | 36.26675 | -121.70559 | 37042 ft | 525 kts | 113° |
| 2026-04-30 20:45 | 36.20614 | -121.54070 | 37030 ft | 525 kts | 113° |
| 2026-04-30 20:45 | 36.17598 | -121.45900 | 37039 ft | 525 kts | 114° |
| 2026-04-30 20:46 | 36.11521 | -121.29496 | 37018 ft | 524 kts | 114° |
| 2026-04-30 20:47 | 36.06937 | -121.17177 | 37008 ft | 523 kts | 114° |
| 2026-04-30 20:48 | 36.02381 | -121.04984 | 37009 ft | 523 kts | 114° |
| 2026-04-30 20:48 | 35.99319 | -120.96814 | 37009 ft | 522 kts | 114° |
| 2026-04-30 20:49 | 35.96274 | -120.88711 | 37005 ft | 522 kts | 114° |
| 2026-04-30 20:50 | 35.91674 | -120.76510 | 37006 ft | 522 kts | 114° |
| 2026-04-30 20:50 | 35.88618 | -120.68430 | 37008 ft | 521 kts | 114° |
| 2026-04-30 20:51 | 35.85541 | -120.60315 | 37019 ft | 521 kts | 114° |
| 2026-04-30 20:51 | 35.80932 | -120.48197 | 37027 ft | 521 kts | 114° |
| 2026-04-30 20:52 | 35.77859 | -120.40144 | 37022 ft | 521 kts | 114° |
| 2026-04-30 20:53 | 35.73220 | -120.28022 | 37000 ft | 521 kts | 114° |
| 2026-04-30 20:53 | 35.70638 | -120.21295 | 37003 ft | 521 kts | 114° |
| 2026-04-30 20:54 | 35.66801 | -120.12070 | 36981 ft | 520 kts | 127° |
| 2026-04-30 20:54 | 35.65208 | -120.09801 | 37007 ft | 519 kts | 137° |
| 2026-04-30 20:54 | 35.62344 | -120.07236 | 37012 ft | 513 kts | 152° |
| 2026-04-30 20:55 | 35.56126 | -120.02840 | 36998 ft | 517 kts | 151° |
| 2026-04-30 20:55 | 35.49985 | -119.98298 | 36718 ft | 512 kts | 150° |
| 2026-04-30 20:56 | 35.43962 | -119.93749 | 35822 ft | 502 kts | 149° |
| 2026-04-30 20:56 | 35.41038 | -119.91541 | 35379 ft | 498 kts | 149° |
| 2026-04-30 20:56 | 35.35166 | -119.87129 | 34467 ft | 490 kts | 149° |
| 2026-04-30 20:57 | 35.32267 | -119.84956 | 34020 ft | 486 kts | 149° |
| 2026-04-30 20:57 | 35.29381 | -119.82796 | 33515 ft | 483 kts | 149° |
| 2026-04-30 20:57 | 35.26582 | -119.80536 | 33051 ft | 479 kts | 144° |
| 2026-04-30 20:58 | 35.21362 | -119.75615 | 32125 ft | 471 kts | 141° |
| 2026-04-30 20:58 | 35.18804 | -119.73123 | 31687 ft | 467 kts | 141° |
| 2026-04-30 20:58 | 35.16255 | -119.70667 | 31256 ft | 464 kts | 142° |
| 2026-04-30 20:58 | 35.13718 | -119.68260 | 30816 ft | 460 kts | 142° |
| 2026-04-30 20:59 | 35.08685 | -119.63557 | 29941 ft | 454 kts | 142° |
| 2026-04-30 20:59 | 35.06177 | -119.61227 | 29440 ft | 451 kts | 142° |
| 2026-04-30 21:00 | 35.01224 | -119.56630 | 28486 ft | 443 kts | 142° |
| 2026-04-30 21:00 | 34.96384 | -119.52137 | 27611 ft | 436 kts | 142° |
| 2026-04-30 21:01 | 34.91591 | -119.47696 | 26746 ft | 428 kts | 142° |
| 2026-04-30 21:01 | 34.89217 | -119.45534 | 26312 ft | 425 kts | 143° |
| 2026-04-30 21:01 | 34.84459 | -119.41293 | 25455 ft | 420 kts | 143° |
| 2026-04-30 21:02 | 34.82107 | -119.39199 | 25033 ft | 417 kts | 143° |
| 2026-04-30 21:02 | 34.79772 | -119.37114 | 24618 ft | 415 kts | 143° |
| 2026-04-30 21:02 | 34.77474 | -119.35061 | 24207 ft | 413 kts | 143° |
| 2026-04-30 21:02 | 34.75152 | -119.32988 | 23770 ft | 412 kts | 143° |
| 2026-04-30 21:03 | 34.72830 | -119.30937 | 23292 ft | 410 kts | 143° |
| 2026-04-30 21:03 | 34.70515 | -119.28919 | 22826 ft | 408 kts | 143° |
| 2026-04-30 21:03 | 34.68210 | -119.26911 | 22388 ft | 405 kts | 143° |
| 2026-04-30 21:03 | 34.65929 | -119.24923 | 21963 ft | 402 kts | 143° |
| 2026-04-30 21:04 | 34.63683 | -119.22970 | 21553 ft | 400 kts | 143° |
| 2026-04-30 21:04 | 34.61425 | -119.21022 | 21129 ft | 397 kts | 143° |
| 2026-04-30 21:04 | 34.56940 | -119.17162 | 20285 ft | 391 kts | 143° |
| 2026-04-30 21:05 | 34.54730 | -119.15239 | 19873 ft | 389 kts | 142° |
| 2026-04-30 21:05 | 34.52594 | -119.13346 | 19450 ft | 382 kts | 142° |
| 2026-04-30 21:05 | 34.50457 | -119.11443 | 19041 ft | 379 kts | 142° |
| 2026-04-30 21:05 | 34.48334 | -119.09556 | 18626 ft | 378 kts | 141° |
| 2026-04-30 21:06 | 34.46230 | -119.07694 | 18204 ft | 369 kts | 141° |
| 2026-04-30 21:06 | 34.44177 | -119.05882 | 17747 ft | 366 kts | 141° |
| 2026-04-30 21:06 | 34.42113 | -119.04081 | 17317 ft | 364 kts | 142° |
| 2026-04-30 21:06 | 34.40060 | -119.02305 | 16926 ft | 360 kts | 142° |
| 2026-04-30 21:07 | 34.38017 | -119.00540 | 16533 ft | 357 kts | 142° |
| 2026-04-30 21:07 | 34.36025 | -118.98818 | 16151 ft | 355 kts | 142° |
| 2026-04-30 21:07 | 34.34018 | -118.97081 | 15760 ft | 353 kts | 142° |
| 2026-04-30 21:07 | 34.32046 | -118.95308 | 15378 ft | 351 kts | 141° |
| 2026-04-30 21:08 | 34.30103 | -118.93531 | 14975 ft | 349 kts | 141° |
| 2026-04-30 21:08 | 34.28166 | -118.91764 | 14583 ft | 348 kts | 141° |
| 2026-04-30 21:08 | 34.26258 | -118.90031 | 14219 ft | 346 kts | 141° |
| 2026-04-30 21:08 | 34.24334 | -118.88278 | 13804 ft | 346 kts | 141° |
| 2026-04-30 21:09 | 34.22418 | -118.86516 | 13367 ft | 344 kts | 141° |
| 2026-04-30 21:09 | 34.20515 | -118.84764 | 12942 ft | 342 kts | 141° |
| 2026-04-30 21:09 | 34.18623 | -118.83027 | 12735 ft | 334 kts | 140° |
| 2026-04-30 21:09 | 34.16816 | -118.81370 | 12573 ft | 324 kts | 141° |
| 2026-04-30 21:10 | 34.15082 | -118.79650 | 12232 ft | 321 kts | 136° |
| 2026-04-30 21:10 | 34.13434 | -118.77840 | 11881 ft | 318 kts | 135° |
| 2026-04-30 21:10 | 34.11850 | -118.76074 | 11502 ft | 309 kts | 135° |
| 2026-04-30 21:10 | 34.10269 | -118.74322 | 11180 ft | 308 kts | 135° |
| 2026-04-30 21:11 | 34.08683 | -118.72581 | 10839 ft | 307 kts | 136° |
| 2026-04-30 21:11 | 34.07097 | -118.70853 | 10502 ft | 303 kts | 136° |
| 2026-04-30 21:11 | 34.05548 | -118.69173 | 10225 ft | 295 kts | 136° |
| 2026-04-30 21:11 | 34.04076 | -118.67570 | 10079 ft | 281 kts | 134° |
| 2026-04-30 21:12 | 34.03010 | -118.65698 | 9861 ft | 268 kts | 107° |
| 2026-04-30 21:12 | 34.02669 | -118.63524 | 9571 ft | 261 kts | 93° |
| 2026-04-30 21:12 | 34.02482 | -118.61358 | 9260 ft | 259 kts | 94° |
| 2026-04-30 21:12 | 34.02282 | -118.59198 | 8949 ft | 258 kts | 94° |
| 2026-04-30 21:13 | 34.02081 | -118.57053 | 8647 ft | 257 kts | 94° |
| 2026-04-30 21:13 | 34.01883 | -118.54932 | 8342 ft | 258 kts | 94° |
| 2026-04-30 21:13 | 34.01681 | -118.52763 | 8108 ft | 260 kts | 93° |
| 2026-04-30 21:13 | 34.01480 | -118.50614 | 7985 ft | 254 kts | 94° |
| 2026-04-30 21:14 | 34.01282 | -118.48537 | 7858 ft | 242 kts | 94° |
| 2026-04-30 21:14 | 34.01093 | -118.46539 | 7598 ft | 239 kts | 93° |
| 2026-04-30 21:14 | 34.01119 | -118.44611 | 7308 ft | 228 kts | 77° |
| 2026-04-30 21:14 | 34.01449 | -118.42758 | 7049 ft | 225 kts | 74° |
| 2026-04-30 21:15 | 34.01797 | -118.40923 | 6788 ft | 225 kts | 75° |
| 2026-04-30 21:15 | 34.02134 | -118.39078 | 6508 ft | 225 kts | 75° |
| 2026-04-30 21:15 | 34.02461 | -118.37234 | 6219 ft | 225 kts | 75° |
| 2026-04-30 21:15 | 34.02777 | -118.35404 | 6057 ft | 220 kts | 78° |
| 2026-04-30 21:16 | 34.02986 | -118.33557 | 6025 ft | 226 kts | 81° |
| 2026-04-30 21:16 | 34.03167 | -118.31685 | 6048 ft | 228 kts | 81° |
| 2026-04-30 21:16 | 34.03329 | -118.29771 | 6024 ft | 231 kts | 83° |
| 2026-04-30 21:16 | 34.03462 | -118.27814 | 5788 ft | 235 kts | 82° |
| 2026-04-30 21:17 | 34.03631 | -118.25860 | 5577 ft | 232 kts | 81° |
| 2026-04-30 21:17 | 34.03800 | -118.23959 | 5319 ft | 228 kts | 82° |
| 2026-04-30 21:17 | 34.03978 | -118.22062 | 5072 ft | 226 kts | 81° |
| 2026-04-30 21:17 | 34.04150 | -118.20186 | 4830 ft | 224 kts | 81° |